<?xml version="1.0" encoding="UTF-8" standalone="no" ?>
<gpx xmlns="http://www.topografix.com/GPX/1/1" xmlns:xsi="http://www.w3.org/2001/XMLSchema-instance" xsi:schemaLocation="http://www.topografix.com/GPX/1/1 http://www.topografix.com/GPX/1/1/gpx.xsd" version="1.1" creator="VisuGPX - https://www.visugpx.com">
  <metadata>
    <name>Marche du Sou Saint Just Malmont: Parcours VTT</name>
    <desc><![CDATA[Marche du sou 18 Octobre : Parcours VTT]]></desc>
  </metadata>
  <trk>
    <name><![CDATA[Parcours VTT.gpx]]></name>
    <trkseg>
      <trkpt lat="45.33799" lon="4.31686">
        <ele>839.00385</ele>
        <time>2015-09-27T07:52:42Z</time>
      </trkpt>
      <trkpt lat="45.33806" lon="4.31695">
        <ele>839.00385</ele>
        <time>2015-09-27T07:55:20Z</time>
      </trkpt>
      <trkpt lat="45.33808" lon="4.31708">
        <ele>838.4966</ele>
        <time>2015-09-27T07:55:30Z</time>
      </trkpt>
      <trkpt lat="45.33801" lon="4.31721">
        <ele>838.6604</ele>
        <time>2015-09-27T07:55:34Z</time>
      </trkpt>
      <trkpt lat="45.33791" lon="4.31732">
        <ele>839.4055</ele>
        <time>2015-09-27T07:55:38Z</time>
      </trkpt>
      <trkpt lat="45.33782" lon="4.31742">
        <ele>839.2205</ele>
        <time>2015-09-27T07:55:42Z</time>
      </trkpt>
      <trkpt lat="45.33775" lon="4.3175">
        <ele>839.91284</ele>
        <time>2015-09-27T07:55:45Z</time>
      </trkpt>
      <trkpt lat="45.33767" lon="4.31757">
        <ele>839.59576</ele>
        <time>2015-09-27T07:55:48Z</time>
      </trkpt>
      <trkpt lat="45.33759" lon="4.31765">
        <ele>840.8482</ele>
        <time>2015-09-27T07:55:51Z</time>
      </trkpt>
      <trkpt lat="45.33751" lon="4.31772">
        <ele>841.2842</ele>
        <time>2015-09-27T07:55:54Z</time>
      </trkpt>
      <trkpt lat="45.33744" lon="4.3178">
        <ele>841.189</ele>
        <time>2015-09-27T07:55:57Z</time>
      </trkpt>
      <trkpt lat="45.33735" lon="4.31791">
        <ele>841.6858</ele>
        <time>2015-09-27T07:56:01Z</time>
      </trkpt>
      <trkpt lat="45.33728" lon="4.31801">
        <ele>842.3886</ele>
        <time>2015-09-27T07:56:04Z</time>
      </trkpt>
      <trkpt lat="45.33719" lon="4.31807">
        <ele>842.29877</ele>
        <time>2015-09-27T07:56:07Z</time>
      </trkpt>
      <trkpt lat="45.3371" lon="4.31814">
        <ele>843.46136</ele>
        <time>2015-09-27T07:56:10Z</time>
      </trkpt>
      <trkpt lat="45.33703" lon="4.31822">
        <ele>843.6939</ele>
        <time>2015-09-27T07:56:13Z</time>
      </trkpt>
      <trkpt lat="45.33696" lon="4.31832">
        <ele>843.40326</ele>
        <time>2015-09-27T07:56:16Z</time>
      </trkpt>
      <trkpt lat="45.33689" lon="4.31844">
        <ele>844.2382</ele>
        <time>2015-09-27T07:56:19Z</time>
      </trkpt>
      <trkpt lat="45.33686" lon="4.31858">
        <ele>844.5183</ele>
        <time>2015-09-27T07:56:22Z</time>
      </trkpt>
      <trkpt lat="45.33686" lon="4.31875">
        <ele>843.93964</ele>
        <time>2015-09-27T07:56:25Z</time>
      </trkpt>
      <trkpt lat="45.33687" lon="4.31893">
        <ele>843.8339</ele>
        <time>2015-09-27T07:56:28Z</time>
      </trkpt>
      <trkpt lat="45.33687" lon="4.3191">
        <ele>843.26587</ele>
        <time>2015-09-27T07:56:31Z</time>
      </trkpt>
      <trkpt lat="45.33687" lon="4.31926">
        <ele>842.8061</ele>
        <time>2015-09-27T07:56:34Z</time>
      </trkpt>
      <trkpt lat="45.33685" lon="4.31948">
        <ele>840.77686</ele>
        <time>2015-09-27T07:56:37Z</time>
      </trkpt>
      <trkpt lat="45.33685" lon="4.31966">
        <ele>839.823</ele>
        <time>2015-09-27T07:56:39Z</time>
      </trkpt>
      <trkpt lat="45.33683" lon="4.31983">
        <ele>838.2429</ele>
        <time>2015-09-27T07:56:41Z</time>
      </trkpt>
      <trkpt lat="45.3368" lon="4.32003">
        <ele>837.8545</ele>
        <time>2015-09-27T07:56:43Z</time>
      </trkpt>
      <trkpt lat="45.33679" lon="4.32028">
        <ele>838.2138</ele>
        <time>2015-09-27T07:56:45Z</time>
      </trkpt>
      <trkpt lat="45.33683" lon="4.32049">
        <ele>837.4529</ele>
        <time>2015-09-27T07:56:46Z</time>
      </trkpt>
      <trkpt lat="45.33682" lon="4.32066">
        <ele>838.3988</ele>
        <time>2015-09-27T07:56:49Z</time>
      </trkpt>
      <trkpt lat="45.33675" lon="4.32082">
        <ele>839.3817</ele>
        <time>2015-09-27T07:56:51Z</time>
      </trkpt>
      <trkpt lat="45.33672" lon="4.32102">
        <ele>841.58276</ele>
        <time>2015-09-27T07:56:55Z</time>
      </trkpt>
      <trkpt lat="45.33673" lon="4.32116">
        <ele>841.9104</ele>
        <time>2015-09-27T07:56:57Z</time>
      </trkpt>
      <trkpt lat="45.33675" lon="4.32132">
        <ele>840.1216</ele>
        <time>2015-09-27T07:57:01Z</time>
      </trkpt>
      <trkpt lat="45.3368" lon="4.3216">
        <ele>838.57056</ele>
        <time>2015-09-27T07:57:04Z</time>
      </trkpt>
      <trkpt lat="45.33684" lon="4.32175">
        <ele>838.198</ele>
        <time>2015-09-27T07:57:06Z</time>
      </trkpt>
      <trkpt lat="45.33687" lon="4.3219">
        <ele>837.8783</ele>
        <time>2015-09-27T07:57:09Z</time>
      </trkpt>
      <trkpt lat="45.33689" lon="4.32206">
        <ele>837.52686</ele>
        <time>2015-09-27T07:57:13Z</time>
      </trkpt>
      <trkpt lat="45.33694" lon="4.3222">
        <ele>837.72235</ele>
        <time>2015-09-27T07:57:15Z</time>
      </trkpt>
      <trkpt lat="45.33698" lon="4.32232">
        <ele>837.68274</ele>
        <time>2015-09-27T07:57:18Z</time>
      </trkpt>
      <trkpt lat="45.33704" lon="4.32244">
        <ele>837.4872</ele>
        <time>2015-09-27T07:57:21Z</time>
      </trkpt>
      <trkpt lat="45.33709" lon="4.32255">
        <ele>837.511</ele>
        <time>2015-09-27T07:57:24Z</time>
      </trkpt>
      <trkpt lat="45.33718" lon="4.32268">
        <ele>837.12524</ele>
        <time>2015-09-27T07:57:28Z</time>
      </trkpt>
      <trkpt lat="45.33723" lon="4.32281">
        <ele>837.12524</ele>
        <time>2015-09-27T07:57:31Z</time>
      </trkpt>
      <trkpt lat="45.3373" lon="4.32298">
        <ele>837.4529</ele>
        <time>2015-09-27T07:57:35Z</time>
      </trkpt>
      <trkpt lat="45.33735" lon="4.32309">
        <ele>837.12524</ele>
        <time>2015-09-27T07:57:38Z</time>
      </trkpt>
      <trkpt lat="45.33739" lon="4.32321">
        <ele>837.16486</ele>
        <time>2015-09-27T07:57:41Z</time>
      </trkpt>
      <trkpt lat="45.33743" lon="4.32335">
        <ele>836.9905</ele>
        <time>2015-09-27T07:57:45Z</time>
      </trkpt>
      <trkpt lat="45.33746" lon="4.32349">
        <ele>836.4699</ele>
        <time>2015-09-27T07:57:49Z</time>
      </trkpt>
      <trkpt lat="45.33749" lon="4.32365">
        <ele>835.9653</ele>
        <time>2015-09-27T07:57:53Z</time>
      </trkpt>
      <trkpt lat="45.33751" lon="4.32381">
        <ele>835.1435</ele>
        <time>2015-09-27T07:57:57Z</time>
      </trkpt>
      <trkpt lat="45.33752" lon="4.32394">
        <ele>834.2927</ele>
        <time>2015-09-27T07:58:00Z</time>
      </trkpt>
      <trkpt lat="45.33752" lon="4.32408">
        <ele>832.9663</ele>
        <time>2015-09-27T07:58:03Z</time>
      </trkpt>
      <trkpt lat="45.33752" lon="4.32424">
        <ele>831.90674</ele>
        <time>2015-09-27T07:58:06Z</time>
      </trkpt>
      <trkpt lat="45.3375" lon="4.32438">
        <ele>831.4232</ele>
        <time>2015-09-27T07:58:08Z</time>
      </trkpt>
      <trkpt lat="45.33748" lon="4.3245">
        <ele>830.24207</ele>
        <time>2015-09-27T07:58:10Z</time>
      </trkpt>
      <trkpt lat="45.33743" lon="4.32462">
        <ele>829.6899</ele>
        <time>2015-09-27T07:58:12Z</time>
      </trkpt>
      <trkpt lat="45.33731" lon="4.32483">
        <ele>828.95795</ele>
        <time>2015-09-27T07:58:15Z</time>
      </trkpt>
      <trkpt lat="45.33723" lon="4.32495">
        <ele>828.5643</ele>
        <time>2015-09-27T07:58:17Z</time>
      </trkpt>
      <trkpt lat="45.33716" lon="4.32505">
        <ele>828.7439</ele>
        <time>2015-09-27T07:58:19Z</time>
      </trkpt>
      <trkpt lat="45.33709" lon="4.32515">
        <ele>828.8417</ele>
        <time>2015-09-27T07:58:21Z</time>
      </trkpt>
      <trkpt lat="45.33701" lon="4.32525">
        <ele>829.25916</ele>
        <time>2015-09-27T07:58:23Z</time>
      </trkpt>
      <trkpt lat="45.33696" lon="4.32537">
        <ele>829.8695</ele>
        <time>2015-09-27T07:58:26Z</time>
      </trkpt>
      <trkpt lat="45.33687" lon="4.32543">
        <ele>829.9937</ele>
        <time>2015-09-27T07:58:28Z</time>
      </trkpt>
      <trkpt lat="45.33673" lon="4.32548">
        <ele>830.82336</ele>
        <time>2015-09-27T07:58:32Z</time>
      </trkpt>
      <trkpt lat="45.33662" lon="4.32552">
        <ele>831.1801</ele>
        <time>2015-09-27T07:58:35Z</time>
      </trkpt>
      <trkpt lat="45.33649" lon="4.32557">
        <ele>831.9543</ele>
        <time>2015-09-27T07:58:39Z</time>
      </trkpt>
      <trkpt lat="45.3364" lon="4.32563">
        <ele>831.90674</ele>
        <time>2015-09-27T07:58:42Z</time>
      </trkpt>
      <trkpt lat="45.3363" lon="4.32571">
        <ele>832.8923</ele>
        <time>2015-09-27T07:58:46Z</time>
      </trkpt>
      <trkpt lat="45.33622" lon="4.32577">
        <ele>833.48944</ele>
        <time>2015-09-27T07:58:50Z</time>
      </trkpt>
      <trkpt lat="45.33613" lon="4.32585">
        <ele>833.8303</ele>
        <time>2015-09-27T07:58:55Z</time>
      </trkpt>
      <trkpt lat="45.33605" lon="4.32593">
        <ele>834.8449</ele>
        <time>2015-09-27T07:59:00Z</time>
      </trkpt>
      <trkpt lat="45.33595" lon="4.326">
        <ele>836.82666</ele>
        <time>2015-09-27T07:59:06Z</time>
      </trkpt>
      <trkpt lat="45.33587" lon="4.32607">
        <ele>837.55853</ele>
        <time>2015-09-27T07:59:11Z</time>
      </trkpt>
      <trkpt lat="45.33578" lon="4.32612">
        <ele>838.272</ele>
        <time>2015-09-27T07:59:16Z</time>
      </trkpt>
      <trkpt lat="45.3357" lon="4.32619">
        <ele>839.00653</ele>
        <time>2015-09-27T07:59:21Z</time>
      </trkpt>
      <trkpt lat="45.33561" lon="4.32627">
        <ele>839.4346</ele>
        <time>2015-09-27T07:59:26Z</time>
      </trkpt>
      <trkpt lat="45.33551" lon="4.32631">
        <ele>840.465</ele>
        <time>2015-09-27T07:59:31Z</time>
      </trkpt>
      <trkpt lat="45.33542" lon="4.32633">
        <ele>841.55365</ele>
        <time>2015-09-27T07:59:36Z</time>
      </trkpt>
      <trkpt lat="45.33534" lon="4.3264">
        <ele>841.5457</ele>
        <time>2015-09-27T07:59:41Z</time>
      </trkpt>
      <trkpt lat="45.33526" lon="4.32646">
        <ele>842.0451</ele>
        <time>2015-09-27T07:59:46Z</time>
      </trkpt>
      <trkpt lat="45.33518" lon="4.32654">
        <ele>842.9858</ele>
        <time>2015-09-27T07:59:51Z</time>
      </trkpt>
      <trkpt lat="45.3351" lon="4.32657">
        <ele>843.6701</ele>
        <time>2015-09-27T07:59:55Z</time>
      </trkpt>
      <trkpt lat="45.33501" lon="4.32661">
        <ele>843.9978</ele>
        <time>2015-09-27T08:00:00Z</time>
      </trkpt>
      <trkpt lat="45.33492" lon="4.32667">
        <ele>844.52094</ele>
        <time>2015-09-27T08:00:05Z</time>
      </trkpt>
      <trkpt lat="45.33483" lon="4.32674">
        <ele>846.13275</ele>
        <time>2015-09-27T08:00:11Z</time>
      </trkpt>
      <trkpt lat="45.33475" lon="4.32679">
        <ele>846.71405</ele>
        <time>2015-09-27T08:00:16Z</time>
      </trkpt>
      <trkpt lat="45.33467" lon="4.32687">
        <ele>847.11566</ele>
        <time>2015-09-27T08:00:22Z</time>
      </trkpt>
      <trkpt lat="45.3346" lon="4.32696">
        <ele>848.0616</ele>
        <time>2015-09-27T08:00:27Z</time>
      </trkpt>
      <trkpt lat="45.33451" lon="4.32704">
        <ele>848.3311</ele>
        <time>2015-09-27T08:00:32Z</time>
      </trkpt>
      <trkpt lat="45.33442" lon="4.32714">
        <ele>848.952</ele>
        <time>2015-09-27T08:00:37Z</time>
      </trkpt>
      <trkpt lat="45.33434" lon="4.32724">
        <ele>849.2506</ele>
        <time>2015-09-27T08:00:42Z</time>
      </trkpt>
      <trkpt lat="45.33427" lon="4.32736">
        <ele>849.2268</ele>
        <time>2015-09-27T08:00:47Z</time>
      </trkpt>
      <trkpt lat="45.33421" lon="4.32748">
        <ele>849.7632</ele>
        <time>2015-09-27T08:00:52Z</time>
      </trkpt>
      <trkpt lat="45.33413" lon="4.32758">
        <ele>849.9508</ele>
        <time>2015-09-27T08:00:57Z</time>
      </trkpt>
      <trkpt lat="45.33406" lon="4.3277">
        <ele>850.3551</ele>
        <time>2015-09-27T08:01:02Z</time>
      </trkpt>
      <trkpt lat="45.33402" lon="4.32782">
        <ele>851.8321</ele>
        <time>2015-09-27T08:01:07Z</time>
      </trkpt>
      <trkpt lat="45.33398" lon="4.32795">
        <ele>852.5561</ele>
        <time>2015-09-27T08:01:12Z</time>
      </trkpt>
      <trkpt lat="45.33394" lon="4.32807">
        <ele>852.96826</ele>
        <time>2015-09-27T08:01:17Z</time>
      </trkpt>
      <trkpt lat="45.3339" lon="4.32821">
        <ele>853.9671</ele>
        <time>2015-09-27T08:01:23Z</time>
      </trkpt>
      <trkpt lat="45.33386" lon="4.32833">
        <ele>855.3701</ele>
        <time>2015-09-27T08:01:28Z</time>
      </trkpt>
      <trkpt lat="45.33383" lon="4.32847">
        <ele>855.8484</ele>
        <time>2015-09-27T08:01:33Z</time>
      </trkpt>
      <trkpt lat="45.3338" lon="4.3286">
        <ele>856.4138</ele>
        <time>2015-09-27T08:01:38Z</time>
      </trkpt>
      <trkpt lat="45.33375" lon="4.32873">
        <ele>857.0189</ele>
        <time>2015-09-27T08:01:44Z</time>
      </trkpt>
      <trkpt lat="45.3337" lon="4.32886">
        <ele>857.3254</ele>
        <time>2015-09-27T08:01:50Z</time>
      </trkpt>
      <trkpt lat="45.33365" lon="4.32899">
        <ele>857.7587</ele>
        <time>2015-09-27T08:01:56Z</time>
      </trkpt>
      <trkpt lat="45.3336" lon="4.32911">
        <ele>858.44574</ele>
        <time>2015-09-27T08:02:01Z</time>
      </trkpt>
      <trkpt lat="45.33356" lon="4.32923">
        <ele>858.5963</ele>
        <time>2015-09-27T08:02:06Z</time>
      </trkpt>
      <trkpt lat="45.33353" lon="4.32936">
        <ele>859.52905</ele>
        <time>2015-09-27T08:02:11Z</time>
      </trkpt>
      <trkpt lat="45.33348" lon="4.32948">
        <ele>860.4433</ele>
        <time>2015-09-27T08:02:16Z</time>
      </trkpt>
      <trkpt lat="45.33344" lon="4.3296">
        <ele>860.0126</ele>
        <time>2015-09-27T08:02:20Z</time>
      </trkpt>
      <trkpt lat="45.33341" lon="4.32973">
        <ele>860.62823</ele>
        <time>2015-09-27T08:02:26Z</time>
      </trkpt>
      <trkpt lat="45.33337" lon="4.32985">
        <ele>861.69574</ele>
        <time>2015-09-27T08:02:31Z</time>
      </trkpt>
      <trkpt lat="45.33334" lon="4.33">
        <ele>862.12115</ele>
        <time>2015-09-27T08:02:37Z</time>
      </trkpt>
      <trkpt lat="45.33331" lon="4.33012">
        <ele>862.59937</ele>
        <time>2015-09-27T08:02:41Z</time>
      </trkpt>
      <trkpt lat="45.33328" lon="4.33026">
        <ele>863.56116</ele>
        <time>2015-09-27T08:02:47Z</time>
      </trkpt>
      <trkpt lat="45.33323" lon="4.33038">
        <ele>864.1689</ele>
        <time>2015-09-27T08:02:53Z</time>
      </trkpt>
      <trkpt lat="45.33318" lon="4.33051">
        <ele>864.4516</ele>
        <time>2015-09-27T08:02:59Z</time>
      </trkpt>
      <trkpt lat="45.33312" lon="4.33063">
        <ele>865.2152</ele>
        <time>2015-09-27T08:03:05Z</time>
      </trkpt>
      <trkpt lat="45.33309" lon="4.33077">
        <ele>865.7146</ele>
        <time>2015-09-27T08:03:11Z</time>
      </trkpt>
      <trkpt lat="45.33305" lon="4.33091">
        <ele>866.1982</ele>
        <time>2015-09-27T08:03:17Z</time>
      </trkpt>
      <trkpt lat="45.33304" lon="4.33104">
        <ele>867.25507</ele>
        <time>2015-09-27T08:03:22Z</time>
      </trkpt>
      <trkpt lat="45.33303" lon="4.33117">
        <ele>867.9209</ele>
        <time>2015-09-27T08:03:27Z</time>
      </trkpt>
      <trkpt lat="45.33302" lon="4.33132">
        <ele>869.41113</ele>
        <time>2015-09-27T08:03:33Z</time>
      </trkpt>
      <trkpt lat="45.333" lon="4.33145">
        <ele>870.3122</ele>
        <time>2015-09-27T08:03:39Z</time>
      </trkpt>
      <trkpt lat="45.33296" lon="4.33158">
        <ele>871.2555</ele>
        <time>2015-09-27T08:03:45Z</time>
      </trkpt>
      <trkpt lat="45.33294" lon="4.33172">
        <ele>872.12213</ele>
        <time>2015-09-27T08:03:52Z</time>
      </trkpt>
      <trkpt lat="45.33291" lon="4.33184">
        <ele>872.9254</ele>
        <time>2015-09-27T08:04:00Z</time>
      </trkpt>
      <trkpt lat="45.3329" lon="4.33197">
        <ele>873.59125</ele>
        <time>2015-09-27T08:04:07Z</time>
      </trkpt>
      <trkpt lat="45.33287" lon="4.33211">
        <ele>874.63495</ele>
        <time>2015-09-27T08:04:15Z</time>
      </trkpt>
      <trkpt lat="45.33284" lon="4.33225">
        <ele>875.4039</ele>
        <time>2015-09-27T08:04:22Z</time>
      </trkpt>
      <trkpt lat="45.33283" lon="4.33239">
        <ele>876.33923</ele>
        <time>2015-09-27T08:04:28Z</time>
      </trkpt>
      <trkpt lat="45.33281" lon="4.33252">
        <ele>876.939</ele>
        <time>2015-09-27T08:04:34Z</time>
      </trkpt>
      <trkpt lat="45.33277" lon="4.33266">
        <ele>878.0303</ele>
        <time>2015-09-27T08:04:41Z</time>
      </trkpt>
      <trkpt lat="45.33271" lon="4.33278">
        <ele>878.54553</ele>
        <time>2015-09-27T08:04:48Z</time>
      </trkpt>
      <trkpt lat="45.33264" lon="4.33287">
        <ele>878.74365</ele>
        <time>2015-09-27T08:04:55Z</time>
      </trkpt>
      <trkpt lat="45.33257" lon="4.33298">
        <ele>879.28796</ele>
        <time>2015-09-27T08:05:02Z</time>
      </trkpt>
      <trkpt lat="45.3325" lon="4.33309">
        <ele>879.40955</ele>
        <time>2015-09-27T08:05:08Z</time>
      </trkpt>
      <trkpt lat="45.33244" lon="4.33319">
        <ele>879.62354</ele>
        <time>2015-09-27T08:05:13Z</time>
      </trkpt>
      <trkpt lat="45.33238" lon="4.33331">
        <ele>880.0516</ele>
        <time>2015-09-27T08:05:19Z</time>
      </trkpt>
      <trkpt lat="45.33233" lon="4.33342">
        <ele>880.35016</ele>
        <time>2015-09-27T08:05:24Z</time>
      </trkpt>
      <trkpt lat="45.33227" lon="4.33352">
        <ele>880.2339</ele>
        <time>2015-09-27T08:05:29Z</time>
      </trkpt>
      <trkpt lat="45.3322" lon="4.33362">
        <ele>880.03577</ele>
        <time>2015-09-27T08:05:35Z</time>
      </trkpt>
      <trkpt lat="45.33213" lon="4.33371">
        <ele>880.00665</ele>
        <time>2015-09-27T08:05:40Z</time>
      </trkpt>
      <trkpt lat="45.33206" lon="4.33382">
        <ele>879.6975</ele>
        <time>2015-09-27T08:05:45Z</time>
      </trkpt>
      <trkpt lat="45.33199" lon="4.33392">
        <ele>879.6579</ele>
        <time>2015-09-27T08:05:50Z</time>
      </trkpt>
      <trkpt lat="45.33191" lon="4.33403">
        <ele>879.3937</ele>
        <time>2015-09-27T08:05:55Z</time>
      </trkpt>
      <trkpt lat="45.33185" lon="4.33412">
        <ele>879.3356</ele>
        <time>2015-09-27T08:05:59Z</time>
      </trkpt>
      <trkpt lat="45.33176" lon="4.33425">
        <ele>878.84937</ele>
        <time>2015-09-27T08:06:03Z</time>
      </trkpt>
      <trkpt lat="45.3317" lon="4.33435">
        <ele>878.675</ele>
        <time>2015-09-27T08:06:06Z</time>
      </trkpt>
      <trkpt lat="45.33162" lon="4.33446">
        <ele>878.36053</ele>
        <time>2015-09-27T08:06:09Z</time>
      </trkpt>
      <trkpt lat="45.33154" lon="4.33455">
        <ele>878.06195</ele>
        <time>2015-09-27T08:06:12Z</time>
      </trkpt>
      <trkpt lat="45.33144" lon="4.33463">
        <ele>877.9721</ele>
        <time>2015-09-27T08:06:15Z</time>
      </trkpt>
      <trkpt lat="45.33136" lon="4.33471">
        <ele>876.9681</ele>
        <time>2015-09-27T08:06:18Z</time>
      </trkpt>
      <trkpt lat="45.33127" lon="4.33481">
        <ele>876.7514</ele>
        <time>2015-09-27T08:06:21Z</time>
      </trkpt>
      <trkpt lat="45.33117" lon="4.33493">
        <ele>876.3709</ele>
        <time>2015-09-27T08:06:24Z</time>
      </trkpt>
      <trkpt lat="45.33108" lon="4.33507">
        <ele>876.57965</ele>
        <time>2015-09-27T08:06:27Z</time>
      </trkpt>
      <trkpt lat="45.33102" lon="4.33522">
        <ele>876.12256</ele>
        <time>2015-09-27T08:06:30Z</time>
      </trkpt>
      <trkpt lat="45.33099" lon="4.33538">
        <ele>875.81604</ele>
        <time>2015-09-27T08:06:34Z</time>
      </trkpt>
      <trkpt lat="45.331" lon="4.33556">
        <ele>875.79755</ele>
        <time>2015-09-27T08:06:37Z</time>
      </trkpt>
      <trkpt lat="45.33102" lon="4.33572">
        <ele>875.6813</ele>
        <time>2015-09-27T08:06:40Z</time>
      </trkpt>
      <trkpt lat="45.33101" lon="4.33587">
        <ele>874.63495</ele>
        <time>2015-09-27T08:06:43Z</time>
      </trkpt>
      <trkpt lat="45.33092" lon="4.33602">
        <ele>874.57947</ele>
        <time>2015-09-27T08:06:46Z</time>
      </trkpt>
      <trkpt lat="45.33085" lon="4.33611">
        <ele>874.6799</ele>
        <time>2015-09-27T08:06:49Z</time>
      </trkpt>
      <trkpt lat="45.33076" lon="4.33618">
        <ele>876.04065</ele>
        <time>2015-09-27T08:06:54Z</time>
      </trkpt>
      <trkpt lat="45.33069" lon="4.33628">
        <ele>877.2693</ele>
        <time>2015-09-27T08:07:00Z</time>
      </trkpt>
      <trkpt lat="45.33062" lon="4.33639">
        <ele>879.103</ele>
        <time>2015-09-27T08:07:08Z</time>
      </trkpt>
      <trkpt lat="45.33054" lon="4.33646">
        <ele>880.65137</ele>
        <time>2015-09-27T08:07:16Z</time>
      </trkpt>
      <trkpt lat="45.33045" lon="4.33654">
        <ele>881.5815</ele>
        <time>2015-09-27T08:07:22Z</time>
      </trkpt>
      <trkpt lat="45.33037" lon="4.33662">
        <ele>882.35565</ele>
        <time>2015-09-27T08:07:28Z</time>
      </trkpt>
      <trkpt lat="45.33028" lon="4.33668">
        <ele>883.75604</ele>
        <time>2015-09-27T08:07:35Z</time>
      </trkpt>
      <trkpt lat="45.33019" lon="4.33676">
        <ele>884.5567</ele>
        <time>2015-09-27T08:07:45Z</time>
      </trkpt>
      <trkpt lat="45.33014" lon="4.33689">
        <ele>884.4748</ele>
        <time>2015-09-27T08:07:49Z</time>
      </trkpt>
      <trkpt lat="45.33009" lon="4.33703">
        <ele>884.9768</ele>
        <time>2015-09-27T08:07:53Z</time>
      </trkpt>
      <trkpt lat="45.33004" lon="4.33714">
        <ele>885.18555</ele>
        <time>2015-09-27T08:07:57Z</time>
      </trkpt>
      <trkpt lat="45.32996" lon="4.33723">
        <ele>885.3969</ele>
        <time>2015-09-27T08:08:03Z</time>
      </trkpt>
      <trkpt lat="45.32988" lon="4.33731">
        <ele>886.2953</ele>
        <time>2015-09-27T08:08:08Z</time>
      </trkpt>
      <trkpt lat="45.32979" lon="4.3374">
        <ele>887.014</ele>
        <time>2015-09-27T08:08:13Z</time>
      </trkpt>
      <trkpt lat="45.32971" lon="4.33749">
        <ele>886.8819</ele>
        <time>2015-09-27T08:08:18Z</time>
      </trkpt>
      <trkpt lat="45.32962" lon="4.33756">
        <ele>886.0364</ele>
        <time>2015-09-27T08:08:22Z</time>
      </trkpt>
      <trkpt lat="45.32953" lon="4.33764">
        <ele>885.6215</ele>
        <time>2015-09-27T08:08:26Z</time>
      </trkpt>
      <trkpt lat="45.32943" lon="4.3377">
        <ele>885.3546</ele>
        <time>2015-09-27T08:08:29Z</time>
      </trkpt>
      <trkpt lat="45.32933" lon="4.33779">
        <ele>885.44446</ele>
        <time>2015-09-27T08:08:32Z</time>
      </trkpt>
      <trkpt lat="45.32924" lon="4.33789">
        <ele>885.352</ele>
        <time>2015-09-27T08:08:35Z</time>
      </trkpt>
      <trkpt lat="45.32917" lon="4.33798">
        <ele>884.6729</ele>
        <time>2015-09-27T08:08:38Z</time>
      </trkpt>
      <trkpt lat="45.32909" lon="4.33807">
        <ele>885.0534</ele>
        <time>2015-09-27T08:08:41Z</time>
      </trkpt>
      <trkpt lat="45.32901" lon="4.33815">
        <ele>885.2014</ele>
        <time>2015-09-27T08:08:44Z</time>
      </trkpt>
      <trkpt lat="45.32892" lon="4.33821">
        <ele>884.9583</ele>
        <time>2015-09-27T08:08:47Z</time>
      </trkpt>
      <trkpt lat="45.32882" lon="4.33825">
        <ele>885.24634</ele>
        <time>2015-09-27T08:08:50Z</time>
      </trkpt>
      <trkpt lat="45.32871" lon="4.33826">
        <ele>885.5317</ele>
        <time>2015-09-27T08:08:53Z</time>
      </trkpt>
      <trkpt lat="45.3286" lon="4.33827">
        <ele>885.8937</ele>
        <time>2015-09-27T08:08:56Z</time>
      </trkpt>
      <trkpt lat="45.3285" lon="4.33828">
        <ele>885.8012</ele>
        <time>2015-09-27T08:08:59Z</time>
      </trkpt>
      <trkpt lat="45.3284" lon="4.3383">
        <ele>886.25037</ele>
        <time>2015-09-27T08:09:02Z</time>
      </trkpt>
      <trkpt lat="45.3283" lon="4.33835">
        <ele>887.2835</ele>
        <time>2015-09-27T08:09:06Z</time>
      </trkpt>
      <trkpt lat="45.32819" lon="4.33839">
        <ele>887.36804</ele>
        <time>2015-09-27T08:09:10Z</time>
      </trkpt>
      <trkpt lat="45.32809" lon="4.33843">
        <ele>888.7817</ele>
        <time>2015-09-27T08:09:15Z</time>
      </trkpt>
      <trkpt lat="45.328" lon="4.33848">
        <ele>889.2916</ele>
        <time>2015-09-27T08:09:20Z</time>
      </trkpt>
      <trkpt lat="45.32791" lon="4.33852">
        <ele>890.1451</ele>
        <time>2015-09-27T08:09:25Z</time>
      </trkpt>
      <trkpt lat="45.32782" lon="4.33857">
        <ele>890.6577</ele>
        <time>2015-09-27T08:09:30Z</time>
      </trkpt>
      <trkpt lat="45.32773" lon="4.33864">
        <ele>892.3937</ele>
        <time>2015-09-27T08:09:36Z</time>
      </trkpt>
      <trkpt lat="45.32765" lon="4.33871">
        <ele>893.48755</ele>
        <time>2015-09-27T08:09:44Z</time>
      </trkpt>
      <trkpt lat="45.32756" lon="4.33878">
        <ele>894.23535</ele>
        <time>2015-09-27T08:09:50Z</time>
      </trkpt>
      <trkpt lat="45.32748" lon="4.33884">
        <ele>894.61053</ele>
        <time>2015-09-27T08:09:56Z</time>
      </trkpt>
      <trkpt lat="45.3274" lon="4.33889">
        <ele>895.8392</ele>
        <time>2015-09-27T08:10:02Z</time>
      </trkpt>
      <trkpt lat="45.3273" lon="4.33895">
        <ele>896.5288</ele>
        <time>2015-09-27T08:10:09Z</time>
      </trkpt>
      <trkpt lat="45.32721" lon="4.33899">
        <ele>897.1313</ele>
        <time>2015-09-27T08:10:15Z</time>
      </trkpt>
      <trkpt lat="45.32714" lon="4.33907">
        <ele>897.59894</ele>
        <time>2015-09-27T08:10:22Z</time>
      </trkpt>
      <trkpt lat="45.32708" lon="4.33919">
        <ele>897.98474</ele>
        <time>2015-09-27T08:10:28Z</time>
      </trkpt>
      <trkpt lat="45.32705" lon="4.33932">
        <ele>899.39307</ele>
        <time>2015-09-27T08:10:36Z</time>
      </trkpt>
      <trkpt lat="45.32705" lon="4.33946">
        <ele>901.2241</ele>
        <time>2015-09-27T08:10:45Z</time>
      </trkpt>
      <trkpt lat="45.32707" lon="4.33959">
        <ele>902.1674</ele>
        <time>2015-09-27T08:10:54Z</time>
      </trkpt>
      <trkpt lat="45.32708" lon="4.33972">
        <ele>903.21375</ele>
        <time>2015-09-27T08:11:02Z</time>
      </trkpt>
      <trkpt lat="45.32703" lon="4.33984">
        <ele>903.69995</ele>
        <time>2015-09-27T08:11:09Z</time>
      </trkpt>
      <trkpt lat="45.32695" lon="4.33991">
        <ele>903.9351</ele>
        <time>2015-09-27T08:11:16Z</time>
      </trkpt>
      <trkpt lat="45.32686" lon="4.33999">
        <ele>904.0144</ele>
        <time>2015-09-27T08:11:22Z</time>
      </trkpt>
      <trkpt lat="45.32678" lon="4.34006">
        <ele>904.0065</ele>
        <time>2015-09-27T08:11:27Z</time>
      </trkpt>
      <trkpt lat="45.32673" lon="4.34017">
        <ele>903.7898</ele>
        <time>2015-09-27T08:11:32Z</time>
      </trkpt>
      <trkpt lat="45.32681" lon="4.34026">
        <ele>903.2032</ele>
        <time>2015-09-27T08:11:40Z</time>
      </trkpt>
      <trkpt lat="45.3269" lon="4.34025">
        <ele>903.11334</ele>
        <time>2015-09-27T08:11:44Z</time>
      </trkpt>
      <trkpt lat="45.32701" lon="4.34024">
        <ele>902.7831</ele>
        <time>2015-09-27T08:11:48Z</time>
      </trkpt>
      <trkpt lat="45.3271" lon="4.34029">
        <ele>902.8888</ele>
        <time>2015-09-27T08:11:52Z</time>
      </trkpt>
      <trkpt lat="45.32713" lon="4.34041">
        <ele>903.0711</ele>
        <time>2015-09-27T08:11:56Z</time>
      </trkpt>
      <trkpt lat="45.32717" lon="4.34055">
        <ele>902.5875</ele>
        <time>2015-09-27T08:12:00Z</time>
      </trkpt>
      <trkpt lat="45.32722" lon="4.34069">
        <ele>902.37616</ele>
        <time>2015-09-27T08:12:04Z</time>
      </trkpt>
      <trkpt lat="45.32728" lon="4.34082">
        <ele>902.3339</ele>
        <time>2015-09-27T08:12:08Z</time>
      </trkpt>
      <trkpt lat="45.32734" lon="4.34094">
        <ele>902.1886</ele>
        <time>2015-09-27T08:12:12Z</time>
      </trkpt>
      <trkpt lat="45.32739" lon="4.34107">
        <ele>902.2071</ele>
        <time>2015-09-27T08:12:16Z</time>
      </trkpt>
      <trkpt lat="45.32744" lon="4.34121">
        <ele>902.6034</ele>
        <time>2015-09-27T08:12:20Z</time>
      </trkpt>
      <trkpt lat="45.3275" lon="4.34131">
        <ele>902.09344</ele>
        <time>2015-09-27T08:12:24Z</time>
      </trkpt>
      <trkpt lat="45.32756" lon="4.34142">
        <ele>902.67737</ele>
        <time>2015-09-27T08:12:29Z</time>
      </trkpt>
      <trkpt lat="45.32763" lon="4.34155">
        <ele>901.64954</ele>
        <time>2015-09-27T08:12:34Z</time>
      </trkpt>
      <trkpt lat="45.32769" lon="4.34167">
        <ele>900.2174</ele>
        <time>2015-09-27T08:12:38Z</time>
      </trkpt>
      <trkpt lat="45.32775" lon="4.34178">
        <ele>900.1276</ele>
        <time>2015-09-27T08:12:42Z</time>
      </trkpt>
      <trkpt lat="45.3278" lon="4.34189">
        <ele>899.6705</ele>
        <time>2015-09-27T08:12:46Z</time>
      </trkpt>
      <trkpt lat="45.32787" lon="4.342">
        <ele>899.6335</ele>
        <time>2015-09-27T08:12:51Z</time>
      </trkpt>
      <trkpt lat="45.32795" lon="4.3421">
        <ele>900.7565</ele>
        <time>2015-09-27T08:12:56Z</time>
      </trkpt>
      <trkpt lat="45.32804" lon="4.34218">
        <ele>901.13165</ele>
        <time>2015-09-27T08:13:00Z</time>
      </trkpt>
      <trkpt lat="45.32811" lon="4.34227">
        <ele>901.23737</ele>
        <time>2015-09-27T08:13:05Z</time>
      </trkpt>
      <trkpt lat="45.32818" lon="4.34237">
        <ele>901.9719</ele>
        <time>2015-09-27T08:13:13Z</time>
      </trkpt>
      <trkpt lat="45.32825" lon="4.34244">
        <ele>902.53204</ele>
        <time>2015-09-27T08:13:19Z</time>
      </trkpt>
      <trkpt lat="45.32832" lon="4.34253">
        <ele>903.63916</ele>
        <time>2015-09-27T08:13:27Z</time>
      </trkpt>
      <trkpt lat="45.32839" lon="4.34262">
        <ele>904.9577</ele>
        <time>2015-09-27T08:13:36Z</time>
      </trkpt>
      <trkpt lat="45.32845" lon="4.34271">
        <ele>906.24713</ele>
        <time>2015-09-27T08:13:45Z</time>
      </trkpt>
      <trkpt lat="45.32853" lon="4.34279">
        <ele>907.5841</ele>
        <time>2015-09-27T08:13:54Z</time>
      </trkpt>
      <trkpt lat="45.32859" lon="4.34289">
        <ele>909.0849</ele>
        <time>2015-09-27T08:14:01Z</time>
      </trkpt>
      <trkpt lat="45.32867" lon="4.34296">
        <ele>911.68225</ele>
        <time>2015-09-27T08:14:17Z</time>
      </trkpt>
      <trkpt lat="45.32875" lon="4.34305">
        <ele>913.24384</ele>
        <time>2015-09-27T08:14:28Z</time>
      </trkpt>
      <trkpt lat="45.32884" lon="4.34309">
        <ele>914.2003</ele>
        <time>2015-09-27T08:14:38Z</time>
      </trkpt>
      <trkpt lat="45.32893" lon="4.34312">
        <ele>915.429</ele>
        <time>2015-09-27T08:14:45Z</time>
      </trkpt>
      <trkpt lat="45.32899" lon="4.34324">
        <ele>916.3644</ele>
        <time>2015-09-27T08:14:51Z</time>
      </trkpt>
      <trkpt lat="45.32908" lon="4.34328">
        <ele>916.2481</ele>
        <time>2015-09-27T08:15:22Z</time>
      </trkpt>
      <trkpt lat="45.32917" lon="4.34338">
        <ele>916.23755</ele>
        <time>2015-09-27T08:15:29Z</time>
      </trkpt>
      <trkpt lat="45.32925" lon="4.34347">
        <ele>916.4119</ele>
        <time>2015-09-27T08:16:05Z</time>
      </trkpt>
      <trkpt lat="45.32924" lon="4.34348">
        <ele>916.8505</ele>
        <time>2015-09-27T08:16:26Z</time>
      </trkpt>
      <trkpt lat="45.32931" lon="4.34356">
        <ele>915.85706</ele>
        <time>2015-09-27T08:17:08Z</time>
      </trkpt>
      <trkpt lat="45.32938" lon="4.34367">
        <ele>916.2217</ele>
        <time>2015-09-27T08:17:14Z</time>
      </trkpt>
      <trkpt lat="45.32948" lon="4.34373">
        <ele>916.27716</ele>
        <time>2015-09-27T08:17:19Z</time>
      </trkpt>
      <trkpt lat="45.32953" lon="4.34383">
        <ele>915.3603</ele>
        <time>2015-09-27T08:17:24Z</time>
      </trkpt>
      <trkpt lat="45.32961" lon="4.34392">
        <ele>914.0048</ele>
        <time>2015-09-27T08:17:29Z</time>
      </trkpt>
      <trkpt lat="45.32968" lon="4.34401">
        <ele>913.26495</ele>
        <time>2015-09-27T08:17:32Z</time>
      </trkpt>
      <trkpt lat="45.32976" lon="4.34412">
        <ele>912.5991</ele>
        <time>2015-09-27T08:17:36Z</time>
      </trkpt>
      <trkpt lat="45.32977" lon="4.34426">
        <ele>911.278</ele>
        <time>2015-09-27T08:17:40Z</time>
      </trkpt>
      <trkpt lat="45.3297" lon="4.34438">
        <ele>911.2304</ele>
        <time>2015-09-27T08:17:44Z</time>
      </trkpt>
      <trkpt lat="45.32962" lon="4.34448">
        <ele>910.6914</ele>
        <time>2015-09-27T08:17:48Z</time>
      </trkpt>
      <trkpt lat="45.32953" lon="4.34457">
        <ele>910.4721</ele>
        <time>2015-09-27T08:17:52Z</time>
      </trkpt>
      <trkpt lat="45.32943" lon="4.34466">
        <ele>909.9701</ele>
        <time>2015-09-27T08:17:57Z</time>
      </trkpt>
      <trkpt lat="45.32937" lon="4.34476">
        <ele>910.0308</ele>
        <time>2015-09-27T08:18:00Z</time>
      </trkpt>
      <trkpt lat="45.3293" lon="4.34488">
        <ele>910.99524</ele>
        <time>2015-09-27T08:18:03Z</time>
      </trkpt>
      <trkpt lat="45.32924" lon="4.345">
        <ele>910.5857</ele>
        <time>2015-09-27T08:18:06Z</time>
      </trkpt>
      <trkpt lat="45.32916" lon="4.34508">
        <ele>910.40607</ele>
        <time>2015-09-27T08:18:09Z</time>
      </trkpt>
      <trkpt lat="45.32911" lon="4.34521">
        <ele>910.3083</ele>
        <time>2015-09-27T08:18:12Z</time>
      </trkpt>
      <trkpt lat="45.32906" lon="4.34537">
        <ele>910.48267</ele>
        <time>2015-09-27T08:18:15Z</time>
      </trkpt>
      <trkpt lat="45.32901" lon="4.34551">
        <ele>911.20135</ele>
        <time>2015-09-27T08:18:18Z</time>
      </trkpt>
      <trkpt lat="45.32898" lon="4.34565">
        <ele>911.8223</ele>
        <time>2015-09-27T08:18:21Z</time>
      </trkpt>
      <trkpt lat="45.32896" lon="4.34578">
        <ele>911.8593</ele>
        <time>2015-09-27T08:18:25Z</time>
      </trkpt>
      <trkpt lat="45.3289" lon="4.34592">
        <ele>912.32697</ele>
        <time>2015-09-27T08:18:30Z</time>
      </trkpt>
      <trkpt lat="45.32883" lon="4.34601">
        <ele>913.46844</ele>
        <time>2015-09-27T08:18:33Z</time>
      </trkpt>
      <trkpt lat="45.32892" lon="4.34605">
        <ele>914.0762</ele>
        <time>2015-09-27T08:18:48Z</time>
      </trkpt>
      <trkpt lat="45.32902" lon="4.34607">
        <ele>913.8595</ele>
        <time>2015-09-27T08:18:53Z</time>
      </trkpt>
      <trkpt lat="45.32912" lon="4.34612">
        <ele>913.878</ele>
        <time>2015-09-27T08:18:57Z</time>
      </trkpt>
      <trkpt lat="45.32923" lon="4.34613">
        <ele>913.5186</ele>
        <time>2015-09-27T08:19:01Z</time>
      </trkpt>
      <trkpt lat="45.32933" lon="4.34615">
        <ele>913.87537</ele>
        <time>2015-09-27T08:19:04Z</time>
      </trkpt>
      <trkpt lat="45.32943" lon="4.34617">
        <ele>913.4394</ele>
        <time>2015-09-27T08:19:07Z</time>
      </trkpt>
      <trkpt lat="45.32953" lon="4.3462">
        <ele>913.1091</ele>
        <time>2015-09-27T08:19:11Z</time>
      </trkpt>
      <trkpt lat="45.32964" lon="4.34621">
        <ele>911.5924</ele>
        <time>2015-09-27T08:19:14Z</time>
      </trkpt>
      <trkpt lat="45.32978" lon="4.3462">
        <ele>911.3546</ele>
        <time>2015-09-27T08:19:17Z</time>
      </trkpt>
      <trkpt lat="45.32987" lon="4.34619">
        <ele>910.8314</ele>
        <time>2015-09-27T08:19:19Z</time>
      </trkpt>
      <trkpt lat="45.32996" lon="4.34617">
        <ele>910.18146</ele>
        <time>2015-09-27T08:19:21Z</time>
      </trkpt>
      <trkpt lat="45.33009" lon="4.34615">
        <ele>909.33856</ele>
        <time>2015-09-27T08:19:24Z</time>
      </trkpt>
      <trkpt lat="45.3302" lon="4.34612">
        <ele>908.6199</ele>
        <time>2015-09-27T08:19:27Z</time>
      </trkpt>
      <trkpt lat="45.33029" lon="4.34604">
        <ele>907.51013</ele>
        <time>2015-09-27T08:19:30Z</time>
      </trkpt>
      <trkpt lat="45.33038" lon="4.34593">
        <ele>906.32904</ele>
        <time>2015-09-27T08:19:33Z</time>
      </trkpt>
      <trkpt lat="45.33051" lon="4.34585">
        <ele>905.01843</ele>
        <time>2015-09-27T08:19:36Z</time>
      </trkpt>
      <trkpt lat="45.33061" lon="4.34581">
        <ele>904.7331</ele>
        <time>2015-09-27T08:19:38Z</time>
      </trkpt>
      <trkpt lat="45.33074" lon="4.34577">
        <ele>903.23224</ele>
        <time>2015-09-27T08:19:42Z</time>
      </trkpt>
      <trkpt lat="45.33083" lon="4.34566">
        <ele>902.96277</ele>
        <time>2015-09-27T08:19:45Z</time>
      </trkpt>
      <trkpt lat="45.33092" lon="4.34559">
        <ele>901.9719</ele>
        <time>2015-09-27T08:19:47Z</time>
      </trkpt>
      <trkpt lat="45.33113" lon="4.34537">
        <ele>901.1607</ele>
        <time>2015-09-27T08:19:49Z</time>
      </trkpt>
      <trkpt lat="45.33121" lon="4.3453">
        <ele>900.9467</ele>
        <time>2015-09-27T08:19:50Z</time>
      </trkpt>
      <trkpt lat="45.33129" lon="4.34525">
        <ele>900.42883</ele>
        <time>2015-09-27T08:19:51Z</time>
      </trkpt>
      <trkpt lat="45.33136" lon="4.34517">
        <ele>899.578</ele>
        <time>2015-09-27T08:19:52Z</time>
      </trkpt>
      <trkpt lat="45.33153" lon="4.34512">
        <ele>898.66113</ele>
        <time>2015-09-27T08:19:54Z</time>
      </trkpt>
      <trkpt lat="45.33168" lon="4.34509">
        <ele>897.2581</ele>
        <time>2015-09-27T08:19:56Z</time>
      </trkpt>
      <trkpt lat="45.33183" lon="4.34499">
        <ele>895.89996</ele>
        <time>2015-09-27T08:19:58Z</time>
      </trkpt>
      <trkpt lat="45.3319" lon="4.3449">
        <ele>895.81805</ele>
        <time>2015-09-27T08:19:59Z</time>
      </trkpt>
      <trkpt lat="45.332" lon="4.34482">
        <ele>895.2843</ele>
        <time>2015-09-27T08:20:00Z</time>
      </trkpt>
      <trkpt lat="45.33211" lon="4.34458">
        <ele>894.65015</ele>
        <time>2015-09-27T08:20:01Z</time>
      </trkpt>
      <trkpt lat="45.33218" lon="4.34439">
        <ele>894.3569</ele>
        <time>2015-09-27T08:20:02Z</time>
      </trkpt>
      <trkpt lat="45.33227" lon="4.34446">
        <ele>894.12964</ele>
        <time>2015-09-27T08:20:03Z</time>
      </trkpt>
      <trkpt lat="45.33236" lon="4.34439">
        <ele>893.6197</ele>
        <time>2015-09-27T08:20:04Z</time>
      </trkpt>
      <trkpt lat="45.33246" lon="4.34427">
        <ele>893.5351</ele>
        <time>2015-09-27T08:20:05Z</time>
      </trkpt>
      <trkpt lat="45.33257" lon="4.34429">
        <ele>893.5325</ele>
        <time>2015-09-27T08:20:06Z</time>
      </trkpt>
      <trkpt lat="45.33268" lon="4.34433">
        <ele>892.99347</ele>
        <time>2015-09-27T08:20:08Z</time>
      </trkpt>
      <trkpt lat="45.33273" lon="4.34445">
        <ele>893.366</ele>
        <time>2015-09-27T08:20:11Z</time>
      </trkpt>
      <trkpt lat="45.33273" lon="4.34427">
        <ele>893.1203</ele>
        <time>2015-09-27T08:20:39Z</time>
      </trkpt>
      <trkpt lat="45.33273" lon="4.34413">
        <ele>893.57214</ele>
        <time>2015-09-27T08:20:41Z</time>
      </trkpt>
      <trkpt lat="45.33273" lon="4.34399">
        <ele>892.85077</ele>
        <time>2015-09-27T08:20:44Z</time>
      </trkpt>
      <trkpt lat="45.33268" lon="4.34387">
        <ele>892.33026</ele>
        <time>2015-09-27T08:20:50Z</time>
      </trkpt>
      <trkpt lat="45.33268" lon="4.34373">
        <ele>890.655</ele>
        <time>2015-09-27T08:20:54Z</time>
      </trkpt>
      <trkpt lat="45.33269" lon="4.34359">
        <ele>889.4528</ele>
        <time>2015-09-27T08:20:57Z</time>
      </trkpt>
      <trkpt lat="45.33271" lon="4.34345">
        <ele>888.7209</ele>
        <time>2015-09-27T08:21:00Z</time>
      </trkpt>
      <trkpt lat="45.33274" lon="4.34332">
        <ele>888.9851</ele>
        <time>2015-09-27T08:21:02Z</time>
      </trkpt>
      <trkpt lat="45.33274" lon="4.34315">
        <ele>888.91376</ele>
        <time>2015-09-27T08:21:04Z</time>
      </trkpt>
      <trkpt lat="45.33272" lon="4.34267">
        <ele>888.1237</ele>
        <time>2015-09-27T08:21:07Z</time>
      </trkpt>
      <trkpt lat="45.33279" lon="4.34255">
        <ele>888.2427</ele>
        <time>2015-09-27T08:21:12Z</time>
      </trkpt>
      <trkpt lat="45.33278" lon="4.3424">
        <ele>888.1237</ele>
        <time>2015-09-27T08:21:15Z</time>
      </trkpt>
      <trkpt lat="45.33278" lon="4.34225">
        <ele>889.08026</ele>
        <time>2015-09-27T08:21:19Z</time>
      </trkpt>
      <trkpt lat="45.33281" lon="4.34208">
        <ele>888.66016</ele>
        <time>2015-09-27T08:21:23Z</time>
      </trkpt>
      <trkpt lat="45.33286" lon="4.34193">
        <ele>888.9508</ele>
        <time>2015-09-27T08:21:27Z</time>
      </trkpt>
      <trkpt lat="45.3329" lon="4.34182">
        <ele>889.5902</ele>
        <time>2015-09-27T08:21:30Z</time>
      </trkpt>
      <trkpt lat="45.33294" lon="4.34167">
        <ele>891.0725</ele>
        <time>2015-09-27T08:21:35Z</time>
      </trkpt>
      <trkpt lat="45.33295" lon="4.3415">
        <ele>891.86786</ele>
        <time>2015-09-27T08:21:40Z</time>
      </trkpt>
      <trkpt lat="45.33302" lon="4.3414">
        <ele>893.4559</ele>
        <time>2015-09-27T08:21:48Z</time>
      </trkpt>
      <trkpt lat="45.33308" lon="4.34127">
        <ele>894.37006</ele>
        <time>2015-09-27T08:21:53Z</time>
      </trkpt>
      <trkpt lat="45.33315" lon="4.34115">
        <ele>895.7652</ele>
        <time>2015-09-27T08:21:57Z</time>
      </trkpt>
      <trkpt lat="45.33323" lon="4.34105">
        <ele>896.4495</ele>
        <time>2015-09-27T08:22:01Z</time>
      </trkpt>
      <trkpt lat="45.33318" lon="4.34094">
        <ele>897.38226</ele>
        <time>2015-09-27T08:22:07Z</time>
      </trkpt>
      <trkpt lat="45.33318" lon="4.34081">
        <ele>899.076</ele>
        <time>2015-09-27T08:22:14Z</time>
      </trkpt>
      <trkpt lat="45.33321" lon="4.34067">
        <ele>900.5187</ele>
        <time>2015-09-27T08:22:22Z</time>
      </trkpt>
      <trkpt lat="45.33323" lon="4.34052">
        <ele>901.28754</ele>
        <time>2015-09-27T08:22:30Z</time>
      </trkpt>
      <trkpt lat="45.33324" lon="4.34038">
        <ele>902.1674</ele>
        <time>2015-09-27T08:22:35Z</time>
      </trkpt>
      <trkpt lat="45.33326" lon="4.34026">
        <ele>902.4686</ele>
        <time>2015-09-27T08:22:40Z</time>
      </trkpt>
      <trkpt lat="45.33331" lon="4.34014">
        <ele>902.51355</ele>
        <time>2015-09-27T08:22:46Z</time>
      </trkpt>
      <trkpt lat="45.33334" lon="4.34001">
        <ele>902.828</ele>
        <time>2015-09-27T08:22:51Z</time>
      </trkpt>
      <trkpt lat="45.33335" lon="4.33986">
        <ele>902.1674</ele>
        <time>2015-09-27T08:22:56Z</time>
      </trkpt>
      <trkpt lat="45.33337" lon="4.33971">
        <ele>901.8107</ele>
        <time>2015-09-27T08:23:01Z</time>
      </trkpt>
      <trkpt lat="45.33346" lon="4.33965">
        <ele>901.3272</ele>
        <time>2015-09-27T08:23:16Z</time>
      </trkpt>
      <trkpt lat="45.33357" lon="4.33966">
        <ele>901.55444</ele>
        <time>2015-09-27T08:23:23Z</time>
      </trkpt>
      <trkpt lat="45.33366" lon="4.33963">
        <ele>902.37616</ele>
        <time>2015-09-27T08:23:29Z</time>
      </trkpt>
      <trkpt lat="45.33378" lon="4.3396">
        <ele>902.3682</ele>
        <time>2015-09-27T08:23:35Z</time>
      </trkpt>
      <trkpt lat="45.33388" lon="4.33953">
        <ele>903.1081</ele>
        <time>2015-09-27T08:23:40Z</time>
      </trkpt>
      <trkpt lat="45.33398" lon="4.33949">
        <ele>903.3221</ele>
        <time>2015-09-27T08:23:45Z</time>
      </trkpt>
      <trkpt lat="45.33408" lon="4.33947">
        <ele>903.88226</ele>
        <time>2015-09-27T08:23:49Z</time>
      </trkpt>
      <trkpt lat="45.33419" lon="4.33944">
        <ele>904.4583</ele>
        <time>2015-09-27T08:23:53Z</time>
      </trkpt>
      <trkpt lat="45.33429" lon="4.33938">
        <ele>904.34467</ele>
        <time>2015-09-27T08:23:58Z</time>
      </trkpt>
      <trkpt lat="45.33438" lon="4.33934">
        <ele>904.70135</ele>
        <time>2015-09-27T08:24:03Z</time>
      </trkpt>
      <trkpt lat="45.33447" lon="4.33929">
        <ele>904.53754</ele>
        <time>2015-09-27T08:24:08Z</time>
      </trkpt>
      <trkpt lat="45.33457" lon="4.33924">
        <ele>905.251</ele>
        <time>2015-09-27T08:24:13Z</time>
      </trkpt>
      <trkpt lat="45.33466" lon="4.33921">
        <ele>905.2589</ele>
        <time>2015-09-27T08:24:17Z</time>
      </trkpt>
      <trkpt lat="45.33474" lon="4.33914">
        <ele>905.214</ele>
        <time>2015-09-27T08:24:20Z</time>
      </trkpt>
      <trkpt lat="45.33484" lon="4.33908">
        <ele>904.7093</ele>
        <time>2015-09-27T08:24:24Z</time>
      </trkpt>
      <trkpt lat="45.33491" lon="4.33898">
        <ele>904.26013</ele>
        <time>2015-09-27T08:24:29Z</time>
      </trkpt>
      <trkpt lat="45.33499" lon="4.33886">
        <ele>903.729</ele>
        <time>2015-09-27T08:24:34Z</time>
      </trkpt>
      <trkpt lat="45.33508" lon="4.33876">
        <ele>903.15826</ele>
        <time>2015-09-27T08:24:37Z</time>
      </trkpt>
      <trkpt lat="45.33515" lon="4.33863">
        <ele>902.9099</ele>
        <time>2015-09-27T08:24:42Z</time>
      </trkpt>
      <trkpt lat="45.33522" lon="4.33853">
        <ele>902.5875</ele>
        <time>2015-09-27T08:24:45Z</time>
      </trkpt>
      <trkpt lat="45.33533" lon="4.33842">
        <ele>901.343</ele>
        <time>2015-09-27T08:24:49Z</time>
      </trkpt>
      <trkpt lat="45.3354" lon="4.3383">
        <ele>900.7565</ele>
        <time>2015-09-27T08:24:52Z</time>
      </trkpt>
      <trkpt lat="45.3355" lon="4.33817">
        <ele>900.06683</ele>
        <time>2015-09-27T08:24:55Z</time>
      </trkpt>
      <trkpt lat="45.33558" lon="4.33808">
        <ele>899.4538</ele>
        <time>2015-09-27T08:24:57Z</time>
      </trkpt>
      <trkpt lat="45.33566" lon="4.338">
        <ele>899.14734</ele>
        <time>2015-09-27T08:25:00Z</time>
      </trkpt>
      <trkpt lat="45.33575" lon="4.3379">
        <ele>898.56866</ele>
        <time>2015-09-27T08:25:04Z</time>
      </trkpt>
      <trkpt lat="45.33582" lon="4.33777">
        <ele>898.0508</ele>
        <time>2015-09-27T08:25:07Z</time>
      </trkpt>
      <trkpt lat="45.33588" lon="4.33766">
        <ele>897.7786</ele>
        <time>2015-09-27T08:25:09Z</time>
      </trkpt>
      <trkpt lat="45.33596" lon="4.33754">
        <ele>897.6729</ele>
        <time>2015-09-27T08:25:11Z</time>
      </trkpt>
      <trkpt lat="45.33606" lon="4.33741">
        <ele>896.2672</ele>
        <time>2015-09-27T08:25:14Z</time>
      </trkpt>
      <trkpt lat="45.33614" lon="4.3373">
        <ele>895.63043</ele>
        <time>2015-09-27T08:25:17Z</time>
      </trkpt>
      <trkpt lat="45.33617" lon="4.33717">
        <ele>894.3278</ele>
        <time>2015-09-27T08:25:21Z</time>
      </trkpt>
      <trkpt lat="45.33623" lon="4.33707">
        <ele>893.8469</ele>
        <time>2015-09-27T08:25:24Z</time>
      </trkpt>
      <trkpt lat="45.33634" lon="4.33697">
        <ele>892.72656</ele>
        <time>2015-09-27T08:25:27Z</time>
      </trkpt>
      <trkpt lat="45.33647" lon="4.33687">
        <ele>892.1136</ele>
        <time>2015-09-27T08:25:29Z</time>
      </trkpt>
      <trkpt lat="45.33663" lon="4.33675">
        <ele>891.10425</ele>
        <time>2015-09-27T08:25:30Z</time>
      </trkpt>
      <trkpt lat="45.33673" lon="4.33668">
        <ele>890.153</ele>
        <time>2015-09-27T08:25:31Z</time>
      </trkpt>
      <trkpt lat="45.33685" lon="4.3366">
        <ele>890.05524</ele>
        <time>2015-09-27T08:25:32Z</time>
      </trkpt>
      <trkpt lat="45.33695" lon="4.33651">
        <ele>889.25995</ele>
        <time>2015-09-27T08:25:33Z</time>
      </trkpt>
      <trkpt lat="45.33707" lon="4.33648">
        <ele>889.6695</ele>
        <time>2015-09-27T08:25:34Z</time>
      </trkpt>
      <trkpt lat="45.33717" lon="4.33641">
        <ele>888.7817</ele>
        <time>2015-09-27T08:25:35Z</time>
      </trkpt>
      <trkpt lat="45.33724" lon="4.3363">
        <ele>888.4223</ele>
        <time>2015-09-27T08:25:37Z</time>
      </trkpt>
      <trkpt lat="45.33724" lon="4.33643">
        <ele>882.46136</ele>
        <time>2015-09-27T08:26:26Z</time>
      </trkpt>
      <trkpt lat="45.33728" lon="4.33656">
        <ele>880.0516</ele>
        <time>2015-09-27T08:26:32Z</time>
      </trkpt>
      <trkpt lat="45.33731" lon="4.33668">
        <ele>877.36176</ele>
        <time>2015-09-27T08:26:38Z</time>
      </trkpt>
      <trkpt lat="45.33732" lon="4.33681">
        <ele>876.1305</ele>
        <time>2015-09-27T08:26:43Z</time>
      </trkpt>
      <trkpt lat="45.33731" lon="4.33695">
        <ele>875.3325</ele>
        <time>2015-09-27T08:26:47Z</time>
      </trkpt>
      <trkpt lat="45.3373" lon="4.33711">
        <ele>873.1077</ele>
        <time>2015-09-27T08:26:52Z</time>
      </trkpt>
      <trkpt lat="45.33728" lon="4.33724">
        <ele>872.74835</ele>
        <time>2015-09-27T08:26:56Z</time>
      </trkpt>
      <trkpt lat="45.33725" lon="4.3374">
        <ele>871.3929</ele>
        <time>2015-09-27T08:27:00Z</time>
      </trkpt>
      <trkpt lat="45.33722" lon="4.33756">
        <ele>871.3902</ele>
        <time>2015-09-27T08:27:04Z</time>
      </trkpt>
      <trkpt lat="45.33717" lon="4.33771">
        <ele>870.3571</ele>
        <time>2015-09-27T08:27:08Z</time>
      </trkpt>
      <trkpt lat="45.33713" lon="4.33787">
        <ele>868.99634</ele>
        <time>2015-09-27T08:27:12Z</time>
      </trkpt>
      <trkpt lat="45.3371" lon="4.33799">
        <ele>868.5841</ele>
        <time>2015-09-27T08:27:14Z</time>
      </trkpt>
      <trkpt lat="45.33706" lon="4.33815">
        <ele>867.8839</ele>
        <time>2015-09-27T08:27:17Z</time>
      </trkpt>
      <trkpt lat="45.33702" lon="4.3383">
        <ele>866.9644</ele>
        <time>2015-09-27T08:27:20Z</time>
      </trkpt>
      <trkpt lat="45.337" lon="4.33843">
        <ele>866.18494</ele>
        <time>2015-09-27T08:27:22Z</time>
      </trkpt>
      <trkpt lat="45.33698" lon="4.33857">
        <ele>865.92865</ele>
        <time>2015-09-27T08:27:24Z</time>
      </trkpt>
      <trkpt lat="45.33699" lon="4.33873">
        <ele>864.737</ele>
        <time>2015-09-27T08:27:27Z</time>
      </trkpt>
      <trkpt lat="45.33704" lon="4.33885">
        <ele>862.2691</ele>
        <time>2015-09-27T08:27:30Z</time>
      </trkpt>
      <trkpt lat="45.33707" lon="4.339">
        <ele>861.4447</ele>
        <time>2015-09-27T08:27:33Z</time>
      </trkpt>
      <trkpt lat="45.33709" lon="4.33914">
        <ele>859.2992</ele>
        <time>2015-09-27T08:27:36Z</time>
      </trkpt>
      <trkpt lat="45.33709" lon="4.33928">
        <ele>858.0943</ele>
        <time>2015-09-27T08:27:39Z</time>
      </trkpt>
      <trkpt lat="45.33712" lon="4.33942">
        <ele>857.23553</ele>
        <time>2015-09-27T08:27:42Z</time>
      </trkpt>
      <trkpt lat="45.33716" lon="4.33954">
        <ele>855.6819</ele>
        <time>2015-09-27T08:27:45Z</time>
      </trkpt>
      <trkpt lat="45.33723" lon="4.33964">
        <ele>853.53375</ele>
        <time>2015-09-27T08:27:49Z</time>
      </trkpt>
      <trkpt lat="45.33731" lon="4.33971">
        <ele>852.10956</ele>
        <time>2015-09-27T08:27:53Z</time>
      </trkpt>
      <trkpt lat="45.33741" lon="4.3398">
        <ele>848.4447</ele>
        <time>2015-09-27T08:27:58Z</time>
      </trkpt>
      <trkpt lat="45.33752" lon="4.33989">
        <ele>846.68494</ele>
        <time>2015-09-27T08:28:01Z</time>
      </trkpt>
      <trkpt lat="45.33761" lon="4.33998">
        <ele>844.58966</ele>
        <time>2015-09-27T08:28:04Z</time>
      </trkpt>
      <trkpt lat="45.33771" lon="4.34007">
        <ele>843.176</ele>
        <time>2015-09-27T08:28:08Z</time>
      </trkpt>
      <trkpt lat="45.33781" lon="4.34015">
        <ele>841.12036</ele>
        <time>2015-09-27T08:28:12Z</time>
      </trkpt>
      <trkpt lat="45.33791" lon="4.34018">
        <ele>839.5984</ele>
        <time>2015-09-27T08:28:16Z</time>
      </trkpt>
      <trkpt lat="45.33799" lon="4.34023">
        <ele>838.45166</ele>
        <time>2015-09-27T08:28:19Z</time>
      </trkpt>
      <trkpt lat="45.3381" lon="4.34026">
        <ele>837.88354</ele>
        <time>2015-09-27T08:28:21Z</time>
      </trkpt>
      <trkpt lat="45.3382" lon="4.34029">
        <ele>836.87683</ele>
        <time>2015-09-27T08:28:24Z</time>
      </trkpt>
      <trkpt lat="45.33829" lon="4.34035">
        <ele>836.425</ele>
        <time>2015-09-27T08:28:28Z</time>
      </trkpt>
      <trkpt lat="45.33838" lon="4.3404">
        <ele>836.34045</ele>
        <time>2015-09-27T08:28:33Z</time>
      </trkpt>
      <trkpt lat="45.33844" lon="4.34049">
        <ele>835.85693</ele>
        <time>2015-09-27T08:28:53Z</time>
      </trkpt>
      <trkpt lat="45.33853" lon="4.34054">
        <ele>836.5571</ele>
        <time>2015-09-27T08:28:59Z</time>
      </trkpt>
      <trkpt lat="45.33862" lon="4.34055">
        <ele>838.30365</ele>
        <time>2015-09-27T08:29:04Z</time>
      </trkpt>
      <trkpt lat="45.33871" lon="4.34053">
        <ele>838.0342</ele>
        <time>2015-09-27T08:29:11Z</time>
      </trkpt>
      <trkpt lat="45.33881" lon="4.34055">
        <ele>838.272</ele>
        <time>2015-09-27T08:29:16Z</time>
      </trkpt>
      <trkpt lat="45.3389" lon="4.34059">
        <ele>838.6762</ele>
        <time>2015-09-27T08:29:20Z</time>
      </trkpt>
      <trkpt lat="45.33898" lon="4.3407">
        <ele>844.9543</ele>
        <time>2015-09-27T08:30:07Z</time>
      </trkpt>
      <trkpt lat="45.33907" lon="4.34071">
        <ele>844.3571</ele>
        <time>2015-09-27T08:30:18Z</time>
      </trkpt>
      <trkpt lat="45.33913" lon="4.34081">
        <ele>846.936</ele>
        <time>2015-09-27T08:30:35Z</time>
      </trkpt>
      <trkpt lat="45.33918" lon="4.34093">
        <ele>848.0272</ele>
        <time>2015-09-27T08:30:42Z</time>
      </trkpt>
      <trkpt lat="45.33923" lon="4.34106">
        <ele>851.1742</ele>
        <time>2015-09-27T08:31:04Z</time>
      </trkpt>
      <trkpt lat="45.3393" lon="4.34117">
        <ele>852.04083</ele>
        <time>2015-09-27T08:31:11Z</time>
      </trkpt>
      <trkpt lat="45.33936" lon="4.34127">
        <ele>852.5799</ele>
        <time>2015-09-27T08:31:17Z</time>
      </trkpt>
      <trkpt lat="45.33944" lon="4.34137">
        <ele>853.0053</ele>
        <time>2015-09-27T08:31:23Z</time>
      </trkpt>
      <trkpt lat="45.33952" lon="4.34143">
        <ele>854.33966</ele>
        <time>2015-09-27T08:31:28Z</time>
      </trkpt>
      <trkpt lat="45.33959" lon="4.34153">
        <ele>854.83374</ele>
        <time>2015-09-27T08:31:34Z</time>
      </trkpt>
      <trkpt lat="45.33967" lon="4.34161">
        <ele>856.47986</ele>
        <time>2015-09-27T08:31:39Z</time>
      </trkpt>
      <trkpt lat="45.33974" lon="4.34173">
        <ele>857.7138</ele>
        <time>2015-09-27T08:31:46Z</time>
      </trkpt>
      <trkpt lat="45.33981" lon="4.34182">
        <ele>857.5553</ele>
        <time>2015-09-27T08:31:51Z</time>
      </trkpt>
      <trkpt lat="45.33986" lon="4.34196">
        <ele>859.00854</ele>
        <time>2015-09-27T08:31:55Z</time>
      </trkpt>
      <trkpt lat="45.33993" lon="4.34207">
        <ele>859.7167</ele>
        <time>2015-09-27T08:32:03Z</time>
      </trkpt>
      <trkpt lat="45.33993" lon="4.3422">
        <ele>860.5067</ele>
        <time>2015-09-27T08:32:14Z</time>
      </trkpt>
      <trkpt lat="45.34" lon="4.3423">
        <ele>861.265</ele>
        <time>2015-09-27T08:32:24Z</time>
      </trkpt>
      <trkpt lat="45.34005" lon="4.34242">
        <ele>863.0486</ele>
        <time>2015-09-27T08:32:32Z</time>
      </trkpt>
      <trkpt lat="45.34007" lon="4.34256">
        <ele>863.0248</ele>
        <time>2015-09-27T08:32:40Z</time>
      </trkpt>
      <trkpt lat="45.3401" lon="4.34269">
        <ele>862.5254</ele>
        <time>2015-09-27T08:32:46Z</time>
      </trkpt>
      <trkpt lat="45.34012" lon="4.34284">
        <ele>861.7512</ele>
        <time>2015-09-27T08:32:51Z</time>
      </trkpt>
      <trkpt lat="45.34018" lon="4.34298">
        <ele>858.5805</ele>
        <time>2015-09-27T08:32:55Z</time>
      </trkpt>
      <trkpt lat="45.34021" lon="4.34312">
        <ele>856.84717</ele>
        <time>2015-09-27T08:32:59Z</time>
      </trkpt>
      <trkpt lat="45.34027" lon="4.34331">
        <ele>856.56445</ele>
        <time>2015-09-27T08:33:02Z</time>
      </trkpt>
      <trkpt lat="45.34031" lon="4.34344">
        <ele>855.7295</ele>
        <time>2015-09-27T08:33:04Z</time>
      </trkpt>
      <trkpt lat="45.34035" lon="4.34356">
        <ele>856.0122</ele>
        <time>2015-09-27T08:33:06Z</time>
      </trkpt>
      <trkpt lat="45.34039" lon="4.34369">
        <ele>857.05853</ele>
        <time>2015-09-27T08:33:08Z</time>
      </trkpt>
      <trkpt lat="45.34043" lon="4.34385">
        <ele>857.7746</ele>
        <time>2015-09-27T08:33:11Z</time>
      </trkpt>
      <trkpt lat="45.34048" lon="4.34399">
        <ele>856.96344</ele>
        <time>2015-09-27T08:33:14Z</time>
      </trkpt>
      <trkpt lat="45.34048" lon="4.34415">
        <ele>856.5486</ele>
        <time>2015-09-27T08:33:17Z</time>
      </trkpt>
      <trkpt lat="45.34046" lon="4.34431">
        <ele>857.0136</ele>
        <time>2015-09-27T08:33:20Z</time>
      </trkpt>
      <trkpt lat="45.34047" lon="4.34444">
        <ele>856.5961</ele>
        <time>2015-09-27T08:33:27Z</time>
      </trkpt>
      <trkpt lat="45.34055" lon="4.34452">
        <ele>856.5882</ele>
        <time>2015-09-27T08:33:39Z</time>
      </trkpt>
      <trkpt lat="45.34063" lon="4.34459">
        <ele>857.4681</ele>
        <time>2015-09-27T08:34:26Z</time>
      </trkpt>
      <trkpt lat="45.34071" lon="4.34466">
        <ele>859.0799</ele>
        <time>2015-09-27T08:34:33Z</time>
      </trkpt>
      <trkpt lat="45.34079" lon="4.34472">
        <ele>860.8819</ele>
        <time>2015-09-27T08:34:41Z</time>
      </trkpt>
      <trkpt lat="45.34089" lon="4.34475">
        <ele>862.5756</ele>
        <time>2015-09-27T08:34:49Z</time>
      </trkpt>
      <trkpt lat="45.34099" lon="4.34474">
        <ele>863.8096</ele>
        <time>2015-09-27T08:34:57Z</time>
      </trkpt>
      <trkpt lat="45.34109" lon="4.34477">
        <ele>865.1545</ele>
        <time>2015-09-27T08:35:04Z</time>
      </trkpt>
      <trkpt lat="45.34118" lon="4.3448">
        <ele>867.47174</ele>
        <time>2015-09-27T08:35:13Z</time>
      </trkpt>
      <trkpt lat="45.34127" lon="4.3448">
        <ele>869.27905</ele>
        <time>2015-09-27T08:35:22Z</time>
      </trkpt>
      <trkpt lat="45.34137" lon="4.34482">
        <ele>871.4193</ele>
        <time>2015-09-27T08:35:30Z</time>
      </trkpt>
      <trkpt lat="45.34147" lon="4.34483">
        <ele>873.26886</ele>
        <time>2015-09-27T08:35:43Z</time>
      </trkpt>
      <trkpt lat="45.34156" lon="4.34482">
        <ele>876.10406</ele>
        <time>2015-09-27T08:36:03Z</time>
      </trkpt>
      <trkpt lat="45.34166" lon="4.34482">
        <ele>878.34735</ele>
        <time>2015-09-27T08:36:15Z</time>
      </trkpt>
      <trkpt lat="45.34176" lon="4.34487">
        <ele>880.23126</ele>
        <time>2015-09-27T08:36:29Z</time>
      </trkpt>
      <trkpt lat="45.34184" lon="4.34492">
        <ele>881.9382</ele>
        <time>2015-09-27T08:36:38Z</time>
      </trkpt>
      <trkpt lat="45.34192" lon="4.345">
        <ele>882.5882</ele>
        <time>2015-09-27T08:36:48Z</time>
      </trkpt>
      <trkpt lat="45.34185" lon="4.34511">
        <ele>882.6067</ele>
        <time>2015-09-27T08:37:23Z</time>
      </trkpt>
      <trkpt lat="45.34179" lon="4.3452">
        <ele>881.8034</ele>
        <time>2015-09-27T08:37:26Z</time>
      </trkpt>
      <trkpt lat="45.34174" lon="4.34533">
        <ele>881.2776</ele>
        <time>2015-09-27T08:37:30Z</time>
      </trkpt>
      <trkpt lat="45.34174" lon="4.34546">
        <ele>881.33044</ele>
        <time>2015-09-27T08:37:34Z</time>
      </trkpt>
      <trkpt lat="45.34176" lon="4.34559">
        <ele>880.77295</ele>
        <time>2015-09-27T08:37:38Z</time>
      </trkpt>
      <trkpt lat="45.34174" lon="4.34574">
        <ele>880.9658</ele>
        <time>2015-09-27T08:37:42Z</time>
      </trkpt>
      <trkpt lat="45.34179" lon="4.34585">
        <ele>880.9949</ele>
        <time>2015-09-27T08:37:46Z</time>
      </trkpt>
      <trkpt lat="45.34189" lon="4.34588">
        <ele>882.64105</ele>
        <time>2015-09-27T08:37:51Z</time>
      </trkpt>
      <trkpt lat="45.342" lon="4.34595">
        <ele>883.95953</ele>
        <time>2015-09-27T08:37:57Z</time>
      </trkpt>
      <trkpt lat="45.34208" lon="4.34603">
        <ele>884.43774</ele>
        <time>2015-09-27T08:38:02Z</time>
      </trkpt>
      <trkpt lat="45.34217" lon="4.34611">
        <ele>885.38104</ele>
        <time>2015-09-27T08:38:07Z</time>
      </trkpt>
      <trkpt lat="45.34225" lon="4.34619">
        <ele>886.50665</ele>
        <time>2015-09-27T08:38:12Z</time>
      </trkpt>
      <trkpt lat="45.34233" lon="4.34626">
        <ele>887.67194</ele>
        <time>2015-09-27T08:38:17Z</time>
      </trkpt>
      <trkpt lat="45.34241" lon="4.34636">
        <ele>887.8701</ele>
        <time>2015-09-27T08:38:23Z</time>
      </trkpt>
      <trkpt lat="45.34249" lon="4.34643">
        <ele>888.9481</ele>
        <time>2015-09-27T08:38:28Z</time>
      </trkpt>
      <trkpt lat="45.34256" lon="4.3465">
        <ele>890.478</ele>
        <time>2015-09-27T08:38:35Z</time>
      </trkpt>
      <trkpt lat="45.34265" lon="4.34658">
        <ele>891.0593</ele>
        <time>2015-09-27T08:38:42Z</time>
      </trkpt>
      <trkpt lat="45.34274" lon="4.34667">
        <ele>892.36194</ele>
        <time>2015-09-27T08:38:49Z</time>
      </trkpt>
      <trkpt lat="45.34283" lon="4.34673">
        <ele>893.11237</ele>
        <time>2015-09-27T08:38:54Z</time>
      </trkpt>
      <trkpt lat="45.34292" lon="4.34678">
        <ele>894.5788</ele>
        <time>2015-09-27T08:38:59Z</time>
      </trkpt>
      <trkpt lat="45.34301" lon="4.34682">
        <ele>895.2394</ele>
        <time>2015-09-27T08:39:05Z</time>
      </trkpt>
      <trkpt lat="45.3431" lon="4.34676">
        <ele>894.925</ele>
        <time>2015-09-27T08:39:12Z</time>
      </trkpt>
      <trkpt lat="45.34317" lon="4.34662">
        <ele>894.63165</ele>
        <time>2015-09-27T08:39:18Z</time>
      </trkpt>
      <trkpt lat="45.34323" lon="4.34648">
        <ele>893.876</ele>
        <time>2015-09-27T08:39:21Z</time>
      </trkpt>
      <trkpt lat="45.34331" lon="4.34631">
        <ele>892.9776</ele>
        <time>2015-09-27T08:39:24Z</time>
      </trkpt>
      <trkpt lat="45.34337" lon="4.3462">
        <ele>892.46765</ele>
        <time>2015-09-27T08:39:26Z</time>
      </trkpt>
      <trkpt lat="45.34343" lon="4.34606">
        <ele>891.70135</ele>
        <time>2015-09-27T08:39:29Z</time>
      </trkpt>
      <trkpt lat="45.34349" lon="4.34591">
        <ele>890.692</ele>
        <time>2015-09-27T08:39:32Z</time>
      </trkpt>
      <trkpt lat="45.34353" lon="4.34574">
        <ele>889.8148</ele>
        <time>2015-09-27T08:39:35Z</time>
      </trkpt>
      <trkpt lat="45.34358" lon="4.34558">
        <ele>888.3008</ele>
        <time>2015-09-27T08:39:38Z</time>
      </trkpt>
      <trkpt lat="45.3436" lon="4.34545">
        <ele>887.4183</ele>
        <time>2015-09-27T08:39:40Z</time>
      </trkpt>
      <trkpt lat="45.34362" lon="4.34528">
        <ele>887.0087</ele>
        <time>2015-09-27T08:39:41Z</time>
      </trkpt>
      <trkpt lat="45.34367" lon="4.34512">
        <ele>886.7022</ele>
        <time>2015-09-27T08:39:43Z</time>
      </trkpt>
      <trkpt lat="45.34377" lon="4.34498">
        <ele>885.2014</ele>
        <time>2015-09-27T08:39:47Z</time>
      </trkpt>
      <trkpt lat="45.34377" lon="4.34482">
        <ele>885.01117</ele>
        <time>2015-09-27T08:39:48Z</time>
      </trkpt>
      <trkpt lat="45.34374" lon="4.34463">
        <ele>884.36646</ele>
        <time>2015-09-27T08:39:50Z</time>
      </trkpt>
      <trkpt lat="45.34376" lon="4.34447">
        <ele>883.86176</ele>
        <time>2015-09-27T08:39:52Z</time>
      </trkpt>
      <trkpt lat="45.34375" lon="4.34432">
        <ele>882.9475</ele>
        <time>2015-09-27T08:39:54Z</time>
      </trkpt>
      <trkpt lat="45.34376" lon="4.34411">
        <ele>882.4006</ele>
        <time>2015-09-27T08:39:56Z</time>
      </trkpt>
      <trkpt lat="45.34377" lon="4.34396">
        <ele>882.1469</ele>
        <time>2015-09-27T08:39:58Z</time>
      </trkpt>
      <trkpt lat="45.34379" lon="4.34375">
        <ele>881.0425</ele>
        <time>2015-09-27T08:40:01Z</time>
      </trkpt>
      <trkpt lat="45.34379" lon="4.34356">
        <ele>879.9459</ele>
        <time>2015-09-27T08:40:04Z</time>
      </trkpt>
      <trkpt lat="45.34379" lon="4.34337">
        <ele>879.57336</ele>
        <time>2015-09-27T08:40:07Z</time>
      </trkpt>
      <trkpt lat="45.34377" lon="4.34323">
        <ele>879.0502</ele>
        <time>2015-09-27T08:40:09Z</time>
      </trkpt>
      <trkpt lat="45.34379" lon="4.34303">
        <ele>878.6538</ele>
        <time>2015-09-27T08:40:12Z</time>
      </trkpt>
      <trkpt lat="45.34385" lon="4.34314">
        <ele>878.7331</ele>
        <time>2015-09-27T08:40:15Z</time>
      </trkpt>
      <trkpt lat="45.3439" lon="4.34325">
        <ele>880.1256</ele>
        <time>2015-09-27T08:40:20Z</time>
      </trkpt>
      <trkpt lat="45.34389" lon="4.34339">
        <ele>879.84283</ele>
        <time>2015-09-27T08:40:25Z</time>
      </trkpt>
      <trkpt lat="45.34393" lon="4.34351">
        <ele>881.4203</ele>
        <time>2015-09-27T08:40:30Z</time>
      </trkpt>
      <trkpt lat="45.34401" lon="4.34355">
        <ele>881.8483</ele>
        <time>2015-09-27T08:40:33Z</time>
      </trkpt>
      <trkpt lat="45.3441" lon="4.3436">
        <ele>881.851</ele>
        <time>2015-09-27T08:40:35Z</time>
      </trkpt>
      <trkpt lat="45.34418" lon="4.3437">
        <ele>882.5063</ele>
        <time>2015-09-27T08:40:40Z</time>
      </trkpt>
      <trkpt lat="45.34427" lon="4.34381">
        <ele>883.1457</ele>
        <time>2015-09-27T08:40:46Z</time>
      </trkpt>
      <trkpt lat="45.34435" lon="4.34392">
        <ele>884.04407</ele>
        <time>2015-09-27T08:40:51Z</time>
      </trkpt>
      <trkpt lat="45.3444" lon="4.34403">
        <ele>883.4945</ele>
        <time>2015-09-27T08:40:56Z</time>
      </trkpt>
      <trkpt lat="45.34449" lon="4.34411">
        <ele>884.3929</ele>
        <time>2015-09-27T08:41:01Z</time>
      </trkpt>
      <trkpt lat="45.34456" lon="4.34425">
        <ele>882.4085</ele>
        <time>2015-09-27T08:41:06Z</time>
      </trkpt>
      <trkpt lat="45.34464" lon="4.34436">
        <ele>882.5063</ele>
        <time>2015-09-27T08:41:09Z</time>
      </trkpt>
      <trkpt lat="45.34472" lon="4.34443">
        <ele>881.563</ele>
        <time>2015-09-27T08:41:12Z</time>
      </trkpt>
      <trkpt lat="45.34477" lon="4.34456">
        <ele>880.2894</ele>
        <time>2015-09-27T08:41:17Z</time>
      </trkpt>
      <trkpt lat="45.34483" lon="4.3447">
        <ele>879.7319</ele>
        <time>2015-09-27T08:41:20Z</time>
      </trkpt>
      <trkpt lat="45.34486" lon="4.34486">
        <ele>878.4504</ele>
        <time>2015-09-27T08:41:23Z</time>
      </trkpt>
      <trkpt lat="45.3449" lon="4.34502">
        <ele>876.8941</ele>
        <time>2015-09-27T08:41:27Z</time>
      </trkpt>
      <trkpt lat="45.34493" lon="4.34516">
        <ele>876.1463</ele>
        <time>2015-09-27T08:41:30Z</time>
      </trkpt>
      <trkpt lat="45.345" lon="4.34529">
        <ele>874.94934</ele>
        <time>2015-09-27T08:41:34Z</time>
      </trkpt>
      <trkpt lat="45.34507" lon="4.34542">
        <ele>874.81464</ele>
        <time>2015-09-27T08:41:37Z</time>
      </trkpt>
      <trkpt lat="45.34513" lon="4.34553">
        <ele>873.9849</ele>
        <time>2015-09-27T08:41:40Z</time>
      </trkpt>
      <trkpt lat="45.34518" lon="4.34565">
        <ele>873.2583</ele>
        <time>2015-09-27T08:41:43Z</time>
      </trkpt>
      <trkpt lat="45.34524" lon="4.34576">
        <ele>872.241</ele>
        <time>2015-09-27T08:41:46Z</time>
      </trkpt>
      <trkpt lat="45.34529" lon="4.34587">
        <ele>871.54614</ele>
        <time>2015-09-27T08:41:49Z</time>
      </trkpt>
      <trkpt lat="45.34535" lon="4.34598">
        <ele>870.8353</ele>
        <time>2015-09-27T08:41:53Z</time>
      </trkpt>
      <trkpt lat="45.34541" lon="4.34612">
        <ele>869.69653</ele>
        <time>2015-09-27T08:41:56Z</time>
      </trkpt>
      <trkpt lat="45.34547" lon="4.34627">
        <ele>868.9673</ele>
        <time>2015-09-27T08:41:59Z</time>
      </trkpt>
      <trkpt lat="45.34554" lon="4.34642">
        <ele>867.6805</ele>
        <time>2015-09-27T08:42:02Z</time>
      </trkpt>
      <trkpt lat="45.34559" lon="4.34653">
        <ele>868.0689</ele>
        <time>2015-09-27T08:42:04Z</time>
      </trkpt>
      <trkpt lat="45.34563" lon="4.34664">
        <ele>867.2181</ele>
        <time>2015-09-27T08:42:06Z</time>
      </trkpt>
      <trkpt lat="45.34572" lon="4.34678">
        <ele>866.3778</ele>
        <time>2015-09-27T08:42:09Z</time>
      </trkpt>
      <trkpt lat="45.3458" lon="4.3469">
        <ele>866.08984</ele>
        <time>2015-09-27T08:42:12Z</time>
      </trkpt>
      <trkpt lat="45.34586" lon="4.34699">
        <ele>865.9154</ele>
        <time>2015-09-27T08:42:15Z</time>
      </trkpt>
      <trkpt lat="45.34594" lon="4.34707">
        <ele>866.3065</ele>
        <time>2015-09-27T08:42:19Z</time>
      </trkpt>
      <trkpt lat="45.34602" lon="4.34715">
        <ele>866.10834</ele>
        <time>2015-09-27T08:42:23Z</time>
      </trkpt>
      <trkpt lat="45.34611" lon="4.34721">
        <ele>868.2644</ele>
        <time>2015-09-27T08:42:29Z</time>
      </trkpt>
      <trkpt lat="45.34621" lon="4.34721">
        <ele>869.83923</ele>
        <time>2015-09-27T08:42:36Z</time>
      </trkpt>
      <trkpt lat="45.3463" lon="4.3472">
        <ele>870.3069</ele>
        <time>2015-09-27T08:42:39Z</time>
      </trkpt>
      <trkpt lat="45.34641" lon="4.34723">
        <ele>870.88025</ele>
        <time>2015-09-27T08:42:41Z</time>
      </trkpt>
      <trkpt lat="45.34649" lon="4.3473">
        <ele>871.72577</ele>
        <time>2015-09-27T08:42:52Z</time>
      </trkpt>
      <trkpt lat="45.34658" lon="4.34731">
        <ele>872.9254</ele>
        <time>2015-09-27T08:42:59Z</time>
      </trkpt>
      <trkpt lat="45.34667" lon="4.34735">
        <ele>873.9612</ele>
        <time>2015-09-27T08:43:05Z</time>
      </trkpt>
      <trkpt lat="45.34676" lon="4.3474">
        <ele>874.34955</ele>
        <time>2015-09-27T08:43:11Z</time>
      </trkpt>
      <trkpt lat="45.34685" lon="4.34746">
        <ele>874.45264</ele>
        <time>2015-09-27T08:43:17Z</time>
      </trkpt>
      <trkpt lat="45.34694" lon="4.3475">
        <ele>874.2756</ele>
        <time>2015-09-27T08:43:27Z</time>
      </trkpt>
      <trkpt lat="45.34703" lon="4.34756">
        <ele>875.27704</ele>
        <time>2015-09-27T08:43:34Z</time>
      </trkpt>
      <trkpt lat="45.34712" lon="4.34762">
        <ele>874.7697</ele>
        <time>2015-09-27T08:43:40Z</time>
      </trkpt>
      <trkpt lat="45.34721" lon="4.34767">
        <ele>875.1713</ele>
        <time>2015-09-27T08:43:44Z</time>
      </trkpt>
      <trkpt lat="45.34731" lon="4.34772">
        <ele>874.81195</ele>
        <time>2015-09-27T08:43:48Z</time>
      </trkpt>
      <trkpt lat="45.3474" lon="4.34778">
        <ele>874.0034</ele>
        <time>2015-09-27T08:43:51Z</time>
      </trkpt>
      <trkpt lat="45.34752" lon="4.34785">
        <ele>873.7815</ele>
        <time>2015-09-27T08:43:54Z</time>
      </trkpt>
      <trkpt lat="45.34761" lon="4.34792">
        <ele>873.39307</ele>
        <time>2015-09-27T08:43:57Z</time>
      </trkpt>
      <trkpt lat="45.3477" lon="4.348">
        <ele>872.58453</ele>
        <time>2015-09-27T08:44:00Z</time>
      </trkpt>
      <trkpt lat="45.34778" lon="4.34811">
        <ele>871.32947</ele>
        <time>2015-09-27T08:44:03Z</time>
      </trkpt>
      <trkpt lat="45.34786" lon="4.34822">
        <ele>870.7006</ele>
        <time>2015-09-27T08:44:06Z</time>
      </trkpt>
      <trkpt lat="45.34793" lon="4.34834">
        <ele>869.67804</ele>
        <time>2015-09-27T08:44:09Z</time>
      </trkpt>
      <trkpt lat="45.348" lon="4.34845">
        <ele>868.6845</ele>
        <time>2015-09-27T08:44:12Z</time>
      </trkpt>
      <trkpt lat="45.34807" lon="4.3486">
        <ele>867.75977</ele>
        <time>2015-09-27T08:44:15Z</time>
      </trkpt>
      <trkpt lat="45.34813" lon="4.34875">
        <ele>865.6961</ele>
        <time>2015-09-27T08:44:18Z</time>
      </trkpt>
      <trkpt lat="45.34819" lon="4.3489">
        <ele>864.9748</ele>
        <time>2015-09-27T08:44:21Z</time>
      </trkpt>
      <trkpt lat="45.34824" lon="4.34905">
        <ele>864.6921</ele>
        <time>2015-09-27T08:44:24Z</time>
      </trkpt>
      <trkpt lat="45.34831" lon="4.34915">
        <ele>863.8677</ele>
        <time>2015-09-27T08:44:27Z</time>
      </trkpt>
      <trkpt lat="45.34838" lon="4.34923">
        <ele>863.4951</ele>
        <time>2015-09-27T08:44:30Z</time>
      </trkpt>
      <trkpt lat="45.34847" lon="4.34929">
        <ele>863.34717</ele>
        <time>2015-09-27T08:44:33Z</time>
      </trkpt>
      <trkpt lat="45.34858" lon="4.34934">
        <ele>863.6906</ele>
        <time>2015-09-27T08:44:37Z</time>
      </trkpt>
      <trkpt lat="45.34867" lon="4.34931">
        <ele>863.5691</ele>
        <time>2015-09-27T08:44:46Z</time>
      </trkpt>
      <trkpt lat="45.34872" lon="4.34917">
        <ele>862.9508</ele>
        <time>2015-09-27T08:45:43Z</time>
      </trkpt>
      <trkpt lat="45.34877" lon="4.34904">
        <ele>862.6443</ele>
        <time>2015-09-27T08:45:46Z</time>
      </trkpt>
      <trkpt lat="45.34881" lon="4.34892">
        <ele>861.9864</ele>
        <time>2015-09-27T08:45:49Z</time>
      </trkpt>
      <trkpt lat="45.34884" lon="4.34878">
        <ele>861.8569</ele>
        <time>2015-09-27T08:45:52Z</time>
      </trkpt>
      <trkpt lat="45.34887" lon="4.34865">
        <ele>862.71826</ele>
        <time>2015-09-27T08:45:55Z</time>
      </trkpt>
      <trkpt lat="45.34891" lon="4.34852">
        <ele>862.1449</ele>
        <time>2015-09-27T08:45:59Z</time>
      </trkpt>
      <trkpt lat="45.34896" lon="4.34841">
        <ele>861.77765</ele>
        <time>2015-09-27T08:46:05Z</time>
      </trkpt>
      <trkpt lat="45.349" lon="4.34828">
        <ele>861.4632</ele>
        <time>2015-09-27T08:46:13Z</time>
      </trkpt>
      <trkpt lat="45.34902" lon="4.34815">
        <ele>861.5187</ele>
        <time>2015-09-27T08:46:19Z</time>
      </trkpt>
      <trkpt lat="45.34903" lon="4.348">
        <ele>861.1514</ele>
        <time>2015-09-27T08:46:25Z</time>
      </trkpt>
      <trkpt lat="45.34906" lon="4.34787">
        <ele>860.59656</ele>
        <time>2015-09-27T08:46:29Z</time>
      </trkpt>
      <trkpt lat="45.34911" lon="4.34771">
        <ele>861.3205</ele>
        <time>2015-09-27T08:46:33Z</time>
      </trkpt>
      <trkpt lat="45.34913" lon="4.34757">
        <ele>861.49225</ele>
        <time>2015-09-27T08:46:36Z</time>
      </trkpt>
      <trkpt lat="45.34916" lon="4.34743">
        <ele>860.8819</ele>
        <time>2015-09-27T08:46:40Z</time>
      </trkpt>
      <trkpt lat="45.34916" lon="4.34729">
        <ele>861.7512</ele>
        <time>2015-09-27T08:46:46Z</time>
      </trkpt>
      <trkpt lat="45.34917" lon="4.34715">
        <ele>862.75525</ele>
        <time>2015-09-27T08:46:51Z</time>
      </trkpt>
      <trkpt lat="45.34915" lon="4.34701">
        <ele>862.4514</ele>
        <time>2015-09-27T08:46:56Z</time>
      </trkpt>
      <trkpt lat="45.34916" lon="4.34686">
        <ele>861.6614</ele>
        <time>2015-09-27T08:47:00Z</time>
      </trkpt>
      <trkpt lat="45.34919" lon="4.34669">
        <ele>861.67456</ele>
        <time>2015-09-27T08:47:03Z</time>
      </trkpt>
      <trkpt lat="45.34926" lon="4.34654">
        <ele>860.99817</ele>
        <time>2015-09-27T08:47:06Z</time>
      </trkpt>
      <trkpt lat="45.34931" lon="4.3464">
        <ele>861.4447</ele>
        <time>2015-09-27T08:47:09Z</time>
      </trkpt>
      <trkpt lat="45.34937" lon="4.34629">
        <ele>861.49225</ele>
        <time>2015-09-27T08:47:12Z</time>
      </trkpt>
      <trkpt lat="45.34942" lon="4.34617">
        <ele>861.21216</ele>
        <time>2015-09-27T08:47:15Z</time>
      </trkpt>
      <trkpt lat="45.34947" lon="4.34604">
        <ele>860.9797</ele>
        <time>2015-09-27T08:47:18Z</time>
      </trkpt>
      <trkpt lat="45.34952" lon="4.34592">
        <ele>861.1805</ele>
        <time>2015-09-27T08:47:21Z</time>
      </trkpt>
      <trkpt lat="45.3496" lon="4.3458">
        <ele>861.3311</ele>
        <time>2015-09-27T08:47:25Z</time>
      </trkpt>
      <trkpt lat="45.34966" lon="4.34568">
        <ele>860.6388</ele>
        <time>2015-09-27T08:47:29Z</time>
      </trkpt>
      <trkpt lat="45.34971" lon="4.34554">
        <ele>861.1065</ele>
        <time>2015-09-27T08:47:33Z</time>
      </trkpt>
      <trkpt lat="45.34975" lon="4.3454">
        <ele>860.837</ele>
        <time>2015-09-27T08:47:37Z</time>
      </trkpt>
      <trkpt lat="45.34978" lon="4.34526">
        <ele>861.339</ele>
        <time>2015-09-27T08:47:42Z</time>
      </trkpt>
      <trkpt lat="45.3498" lon="4.34513">
        <ele>861.7856</ele>
        <time>2015-09-27T08:47:47Z</time>
      </trkpt>
      <trkpt lat="45.34984" lon="4.345">
        <ele>862.2876</ele>
        <time>2015-09-27T08:47:54Z</time>
      </trkpt>
      <trkpt lat="45.34988" lon="4.3448">
        <ele>863.6008</ele>
        <time>2015-09-27T08:48:02Z</time>
      </trkpt>
      <trkpt lat="45.34993" lon="4.3447">
        <ele>864.38556</ele>
        <time>2015-09-27T08:48:09Z</time>
      </trkpt>
      <trkpt lat="45.34995" lon="4.34457">
        <ele>865.84143</ele>
        <time>2015-09-27T08:48:17Z</time>
      </trkpt>
      <trkpt lat="45.34999" lon="4.34445">
        <ele>866.8746</ele>
        <time>2015-09-27T08:48:24Z</time>
      </trkpt>
      <trkpt lat="45.35004" lon="4.34432">
        <ele>867.2577</ele>
        <time>2015-09-27T08:48:29Z</time>
      </trkpt>
      <trkpt lat="45.35009" lon="4.34419">
        <ele>868.63696</ele>
        <time>2015-09-27T08:48:34Z</time>
      </trkpt>
      <trkpt lat="45.35013" lon="4.34405">
        <ele>868.59204</ele>
        <time>2015-09-27T08:48:40Z</time>
      </trkpt>
      <trkpt lat="45.35019" lon="4.34394">
        <ele>869.2658</ele>
        <time>2015-09-27T08:48:45Z</time>
      </trkpt>
      <trkpt lat="45.35025" lon="4.34385">
        <ele>869.58026</ele>
        <time>2015-09-27T08:48:51Z</time>
      </trkpt>
      <trkpt lat="45.35033" lon="4.34374">
        <ele>870.7006</ele>
        <time>2015-09-27T08:48:58Z</time>
      </trkpt>
      <trkpt lat="45.35041" lon="4.34363">
        <ele>870.35974</ele>
        <time>2015-09-27T08:49:17Z</time>
      </trkpt>
      <trkpt lat="45.35049" lon="4.34352">
        <ele>870.9146</ele>
        <time>2015-09-27T08:49:24Z</time>
      </trkpt>
      <trkpt lat="45.35057" lon="4.3434">
        <ele>870.2673</ele>
        <time>2015-09-27T08:49:29Z</time>
      </trkpt>
      <trkpt lat="45.35064" lon="4.34331">
        <ele>871.1683</ele>
        <time>2015-09-27T08:49:33Z</time>
      </trkpt>
      <trkpt lat="45.35073" lon="4.34325">
        <ele>870.9357</ele>
        <time>2015-09-27T08:49:37Z</time>
      </trkpt>
      <trkpt lat="45.35081" lon="4.34318">
        <ele>871.7919</ele>
        <time>2015-09-27T08:49:41Z</time>
      </trkpt>
      <trkpt lat="45.35088" lon="4.34307">
        <ele>871.0309</ele>
        <time>2015-09-27T08:49:45Z</time>
      </trkpt>
      <trkpt lat="45.35093" lon="4.34296">
        <ele>870.8089</ele>
        <time>2015-09-27T08:49:50Z</time>
      </trkpt>
      <trkpt lat="45.35099" lon="4.34283">
        <ele>871.3585</ele>
        <time>2015-09-27T08:49:54Z</time>
      </trkpt>
      <trkpt lat="45.35106" lon="4.34271">
        <ele>872.3758</ele>
        <time>2015-09-27T08:50:00Z</time>
      </trkpt>
      <trkpt lat="45.35111" lon="4.34261">
        <ele>872.46564</ele>
        <time>2015-09-27T08:50:03Z</time>
      </trkpt>
      <trkpt lat="45.35119" lon="4.34248">
        <ele>873.4829</ele>
        <time>2015-09-27T08:50:09Z</time>
      </trkpt>
      <trkpt lat="45.35126" lon="4.34238">
        <ele>874.5953</ele>
        <time>2015-09-27T08:50:15Z</time>
      </trkpt>
      <trkpt lat="45.35132" lon="4.34227">
        <ele>874.6851</ele>
        <time>2015-09-27T08:50:20Z</time>
      </trkpt>
      <trkpt lat="45.35141" lon="4.34214">
        <ele>875.51215</ele>
        <time>2015-09-27T08:50:26Z</time>
      </trkpt>
      <trkpt lat="45.35148" lon="4.34204">
        <ele>876.68005</ele>
        <time>2015-09-27T08:50:31Z</time>
      </trkpt>
      <trkpt lat="45.35154" lon="4.34192">
        <ele>877.4331</ele>
        <time>2015-09-27T08:50:36Z</time>
      </trkpt>
      <trkpt lat="45.35159" lon="4.34179">
        <ele>878.82294</ele>
        <time>2015-09-27T08:50:41Z</time>
      </trkpt>
      <trkpt lat="45.35161" lon="4.34166">
        <ele>879.0343</ele>
        <time>2015-09-27T08:50:46Z</time>
      </trkpt>
      <trkpt lat="45.35165" lon="4.34154">
        <ele>878.94183</ele>
        <time>2015-09-27T08:50:51Z</time>
      </trkpt>
      <trkpt lat="45.3517" lon="4.34142">
        <ele>879.8217</ele>
        <time>2015-09-27T08:50:56Z</time>
      </trkpt>
      <trkpt lat="45.35177" lon="4.3413">
        <ele>879.214</ele>
        <time>2015-09-27T08:51:02Z</time>
      </trkpt>
      <trkpt lat="45.35185" lon="4.34122">
        <ele>879.4994</ele>
        <time>2015-09-27T08:51:07Z</time>
      </trkpt>
      <trkpt lat="45.35193" lon="4.34116">
        <ele>879.16907</ele>
        <time>2015-09-27T08:51:11Z</time>
      </trkpt>
      <trkpt lat="45.352" lon="4.34106">
        <ele>879.76886</ele>
        <time>2015-09-27T08:51:15Z</time>
      </trkpt>
      <trkpt lat="45.35204" lon="4.34093">
        <ele>879.901</ele>
        <time>2015-09-27T08:51:19Z</time>
      </trkpt>
      <trkpt lat="45.35208" lon="4.34079">
        <ele>879.60504</ele>
        <time>2015-09-27T08:51:23Z</time>
      </trkpt>
      <trkpt lat="45.35201" lon="4.34067">
        <ele>878.4953</ele>
        <time>2015-09-27T08:51:28Z</time>
      </trkpt>
      <trkpt lat="45.35192" lon="4.34058">
        <ele>877.9404</ele>
        <time>2015-09-27T08:51:31Z</time>
      </trkpt>
      <trkpt lat="45.35183" lon="4.34049">
        <ele>876.49774</ele>
        <time>2015-09-27T08:51:34Z</time>
      </trkpt>
      <trkpt lat="45.35175" lon="4.34042">
        <ele>875.69714</ele>
        <time>2015-09-27T08:51:37Z</time>
      </trkpt>
      <trkpt lat="45.35165" lon="4.34041">
        <ele>875.0841</ele>
        <time>2015-09-27T08:51:40Z</time>
      </trkpt>
      <trkpt lat="45.35156" lon="4.34041">
        <ele>874.23596</ele>
        <time>2015-09-27T08:51:43Z</time>
      </trkpt>
      <trkpt lat="45.35146" lon="4.34041">
        <ele>873.0786</ele>
        <time>2015-09-27T08:51:46Z</time>
      </trkpt>
      <trkpt lat="45.35134" lon="4.34034">
        <ele>870.80365</ele>
        <time>2015-09-27T08:51:49Z</time>
      </trkpt>
      <trkpt lat="45.35123" lon="4.34021">
        <ele>868.8325</ele>
        <time>2015-09-27T08:51:51Z</time>
      </trkpt>
      <trkpt lat="45.35111" lon="4.3401">
        <ele>867.75446</ele>
        <time>2015-09-27T08:51:53Z</time>
      </trkpt>
      <trkpt lat="45.35098" lon="4.33996">
        <ele>866.8587</ele>
        <time>2015-09-27T08:51:55Z</time>
      </trkpt>
      <trkpt lat="45.35086" lon="4.33986">
        <ele>866.61035</ele>
        <time>2015-09-27T08:51:57Z</time>
      </trkpt>
      <trkpt lat="45.35076" lon="4.33978">
        <ele>866.8429</ele>
        <time>2015-09-27T08:51:59Z</time>
      </trkpt>
      <trkpt lat="45.35065" lon="4.3397">
        <ele>866.539</ele>
        <time>2015-09-27T08:52:01Z</time>
      </trkpt>
      <trkpt lat="45.35056" lon="4.33963">
        <ele>866.325</ele>
        <time>2015-09-27T08:52:03Z</time>
      </trkpt>
      <trkpt lat="45.35046" lon="4.3396">
        <ele>866.12683</ele>
        <time>2015-09-27T08:52:05Z</time>
      </trkpt>
      <trkpt lat="45.35034" lon="4.33961">
        <ele>865.3183</ele>
        <time>2015-09-27T08:52:08Z</time>
      </trkpt>
      <trkpt lat="45.3502" lon="4.33964">
        <ele>865.0065</ele>
        <time>2015-09-27T08:52:11Z</time>
      </trkpt>
      <trkpt lat="45.35011" lon="4.33966">
        <ele>864.70526</ele>
        <time>2015-09-27T08:52:13Z</time>
      </trkpt>
      <trkpt lat="45.34999" lon="4.33969">
        <ele>863.614</ele>
        <time>2015-09-27T08:52:16Z</time>
      </trkpt>
      <trkpt lat="45.34987" lon="4.33971">
        <ele>863.22034</ele>
        <time>2015-09-27T08:52:19Z</time>
      </trkpt>
      <trkpt lat="45.34974" lon="4.33971">
        <ele>862.0022</ele>
        <time>2015-09-27T08:52:22Z</time>
      </trkpt>
      <trkpt lat="45.34964" lon="4.33972">
        <ele>861.088</ele>
        <time>2015-09-27T08:52:24Z</time>
      </trkpt>
      <trkpt lat="45.34951" lon="4.33972">
        <ele>859.241</ele>
        <time>2015-09-27T08:52:26Z</time>
      </trkpt>
      <trkpt lat="45.34938" lon="4.33976">
        <ele>857.35974</ele>
        <time>2015-09-27T08:52:28Z</time>
      </trkpt>
      <trkpt lat="45.34926" lon="4.33978">
        <ele>855.1006</ele>
        <time>2015-09-27T08:52:30Z</time>
      </trkpt>
      <trkpt lat="45.34914" lon="4.33981">
        <ele>854.5484</ele>
        <time>2015-09-27T08:52:32Z</time>
      </trkpt>
      <trkpt lat="45.34898" lon="4.33986">
        <ele>853.47296</ele>
        <time>2015-09-27T08:52:34Z</time>
      </trkpt>
      <trkpt lat="45.34885" lon="4.3399">
        <ele>852.712</ele>
        <time>2015-09-27T08:52:36Z</time>
      </trkpt>
      <trkpt lat="45.34875" lon="4.33995">
        <ele>851.5626</ele>
        <time>2015-09-27T08:52:38Z</time>
      </trkpt>
      <trkpt lat="45.34863" lon="4.34001">
        <ele>850.5347</ele>
        <time>2015-09-27T08:52:40Z</time>
      </trkpt>
      <trkpt lat="45.34853" lon="4.34008">
        <ele>849.89</ele>
        <time>2015-09-27T08:52:42Z</time>
      </trkpt>
      <trkpt lat="45.34842" lon="4.34016">
        <ele>848.0986</ele>
        <time>2015-09-27T08:52:44Z</time>
      </trkpt>
      <trkpt lat="45.34829" lon="4.34018">
        <ele>845.34</ele>
        <time>2015-09-27T08:52:47Z</time>
      </trkpt>
      <trkpt lat="45.34812" lon="4.34016">
        <ele>843.34247</ele>
        <time>2015-09-27T08:52:49Z</time>
      </trkpt>
      <trkpt lat="45.34801" lon="4.34001">
        <ele>843.13904</ele>
        <time>2015-09-27T08:52:51Z</time>
      </trkpt>
      <trkpt lat="45.34792" lon="4.3399">
        <ele>843.46136</ele>
        <time>2015-09-27T08:52:54Z</time>
      </trkpt>
      <trkpt lat="45.34789" lon="4.33974">
        <ele>843.9978</ele>
        <time>2015-09-27T08:52:56Z</time>
      </trkpt>
      <trkpt lat="45.34796" lon="4.33959">
        <ele>843.8049</ele>
        <time>2015-09-27T08:52:59Z</time>
      </trkpt>
      <trkpt lat="45.34803" lon="4.33943">
        <ele>844.1959</ele>
        <time>2015-09-27T08:53:02Z</time>
      </trkpt>
      <trkpt lat="45.34811" lon="4.33931">
        <ele>845.1921</ele>
        <time>2015-09-27T08:53:05Z</time>
      </trkpt>
      <trkpt lat="45.34812" lon="4.33916">
        <ele>846.02704</ele>
        <time>2015-09-27T08:53:08Z</time>
      </trkpt>
      <trkpt lat="45.34807" lon="4.33901">
        <ele>847.3244</ele>
        <time>2015-09-27T08:53:15Z</time>
      </trkpt>
      <trkpt lat="45.34803" lon="4.33888">
        <ele>848.3681</ele>
        <time>2015-09-27T08:53:19Z</time>
      </trkpt>
      <trkpt lat="45.348" lon="4.33876">
        <ele>850.1305</ele>
        <time>2015-09-27T08:53:26Z</time>
      </trkpt>
      <trkpt lat="45.34794" lon="4.33866">
        <ele>851.9352</ele>
        <time>2015-09-27T08:53:32Z</time>
      </trkpt>
      <trkpt lat="45.34785" lon="4.33855">
        <ele>852.1994</ele>
        <time>2015-09-27T08:53:36Z</time>
      </trkpt>
      <trkpt lat="45.34777" lon="4.33847">
        <ele>853.0264</ele>
        <time>2015-09-27T08:53:41Z</time>
      </trkpt>
      <trkpt lat="45.34767" lon="4.33841">
        <ele>852.8811</ele>
        <time>2015-09-27T08:53:47Z</time>
      </trkpt>
      <trkpt lat="45.34758" lon="4.33835">
        <ele>852.14655</ele>
        <time>2015-09-27T08:53:54Z</time>
      </trkpt>
      <trkpt lat="45.34749" lon="4.33827">
        <ele>853.2748</ele>
        <time>2015-09-27T08:53:59Z</time>
      </trkpt>
      <trkpt lat="45.34739" lon="4.33825">
        <ele>853.2563</ele>
        <time>2015-09-27T08:54:03Z</time>
      </trkpt>
      <trkpt lat="45.34729" lon="4.33825">
        <ele>853.61566</ele>
        <time>2015-09-27T08:54:08Z</time>
      </trkpt>
      <trkpt lat="45.3472" lon="4.3382">
        <ele>854.95795</ele>
        <time>2015-09-27T08:54:17Z</time>
      </trkpt>
      <trkpt lat="45.34712" lon="4.33826">
        <ele>856.2949</ele>
        <time>2015-09-27T08:54:25Z</time>
      </trkpt>
      <trkpt lat="45.34706" lon="4.33838">
        <ele>857.3571</ele>
        <time>2015-09-27T08:54:31Z</time>
      </trkpt>
      <trkpt lat="45.34701" lon="4.33849">
        <ele>859.1169</ele>
        <time>2015-09-27T08:54:37Z</time>
      </trkpt>
      <trkpt lat="45.34693" lon="4.33856">
        <ele>860.4433</ele>
        <time>2015-09-27T08:54:44Z</time>
      </trkpt>
      <trkpt lat="45.34683" lon="4.33855">
        <ele>861.1065</ele>
        <time>2015-09-27T08:54:50Z</time>
      </trkpt>
      <trkpt lat="45.34673" lon="4.33849">
        <ele>862.09204</ele>
        <time>2015-09-27T08:54:56Z</time>
      </trkpt>
      <trkpt lat="45.34662" lon="4.33843">
        <ele>864.3486</ele>
        <time>2015-09-27T08:55:03Z</time>
      </trkpt>
      <trkpt lat="45.34652" lon="4.33839">
        <ele>865.04877</ele>
        <time>2015-09-27T08:55:11Z</time>
      </trkpt>
      <trkpt lat="45.34642" lon="4.33838">
        <ele>865.9603</ele>
        <time>2015-09-27T08:55:20Z</time>
      </trkpt>
      <trkpt lat="45.34635" lon="4.33848">
        <ele>866.77155</ele>
        <time>2015-09-27T08:56:34Z</time>
      </trkpt>
      <trkpt lat="45.34629" lon="4.33859">
        <ele>866.8878</ele>
        <time>2015-09-27T08:56:39Z</time>
      </trkpt>
      <trkpt lat="45.34623" lon="4.3387">
        <ele>867.00934</ele>
        <time>2015-09-27T08:56:44Z</time>
      </trkpt>
      <trkpt lat="45.34617" lon="4.33881">
        <ele>867.11237</ele>
        <time>2015-09-27T08:56:50Z</time>
      </trkpt>
      <trkpt lat="45.34612" lon="4.33892">
        <ele>867.5801</ele>
        <time>2015-09-27T08:56:56Z</time>
      </trkpt>
      <trkpt lat="45.34605" lon="4.33905">
        <ele>868.3384</ele>
        <time>2015-09-27T08:57:02Z</time>
      </trkpt>
      <trkpt lat="45.346" lon="4.33915">
        <ele>867.97906</ele>
        <time>2015-09-27T08:57:07Z</time>
      </trkpt>
      <trkpt lat="45.34592" lon="4.33922">
        <ele>868.8325</ele>
        <time>2015-09-27T08:57:13Z</time>
      </trkpt>
      <trkpt lat="45.34583" lon="4.33917">
        <ele>870.01886</ele>
        <time>2015-09-27T08:57:19Z</time>
      </trkpt>
      <trkpt lat="45.34575" lon="4.33909">
        <ele>869.5195</ele>
        <time>2015-09-27T08:57:24Z</time>
      </trkpt>
      <trkpt lat="45.34567" lon="4.339">
        <ele>870.0136</ele>
        <time>2015-09-27T08:57:29Z</time>
      </trkpt>
      <trkpt lat="45.34559" lon="4.33892">
        <ele>870.2673</ele>
        <time>2015-09-27T08:57:34Z</time>
      </trkpt>
      <trkpt lat="45.34551" lon="4.33883">
        <ele>871.4933</ele>
        <time>2015-09-27T08:57:40Z</time>
      </trkpt>
      <trkpt lat="45.34544" lon="4.33874">
        <ele>871.49066</ele>
        <time>2015-09-27T08:57:46Z</time>
      </trkpt>
      <trkpt lat="45.34536" lon="4.33864">
        <ele>871.2925</ele>
        <time>2015-09-27T08:57:51Z</time>
      </trkpt>
      <trkpt lat="45.3453" lon="4.33854">
        <ele>871.2106</ele>
        <time>2015-09-27T08:57:56Z</time>
      </trkpt>
      <trkpt lat="45.34522" lon="4.33845">
        <ele>871.10486</ele>
        <time>2015-09-27T08:58:01Z</time>
      </trkpt>
      <trkpt lat="45.34514" lon="4.33835">
        <ele>870.52094</ele>
        <time>2015-09-27T08:58:06Z</time>
      </trkpt>
      <trkpt lat="45.34507" lon="4.33828">
        <ele>869.4904</ele>
        <time>2015-09-27T08:58:10Z</time>
      </trkpt>
      <trkpt lat="45.34496" lon="4.33823">
        <ele>868.05566</ele>
        <time>2015-09-27T08:58:14Z</time>
      </trkpt>
      <trkpt lat="45.34487" lon="4.3382">
        <ele>867.0225</ele>
        <time>2015-09-27T08:58:18Z</time>
      </trkpt>
      <trkpt lat="45.34477" lon="4.33817">
        <ele>865.14124</ele>
        <time>2015-09-27T08:58:22Z</time>
      </trkpt>
      <trkpt lat="45.34465" lon="4.33815">
        <ele>863.3815</ele>
        <time>2015-09-27T08:58:25Z</time>
      </trkpt>
      <trkpt lat="45.34454" lon="4.33812">
        <ele>861.2413</ele>
        <time>2015-09-27T08:58:28Z</time>
      </trkpt>
      <trkpt lat="45.34443" lon="4.3381">
        <ele>859.6004</ele>
        <time>2015-09-27T08:58:31Z</time>
      </trkpt>
      <trkpt lat="45.34428" lon="4.33804">
        <ele>857.0902</ele>
        <time>2015-09-27T08:58:34Z</time>
      </trkpt>
      <trkpt lat="45.34418" lon="4.33796">
        <ele>855.423</ele>
        <time>2015-09-27T08:58:36Z</time>
      </trkpt>
      <trkpt lat="45.34408" lon="4.33789">
        <ele>853.3805</ele>
        <time>2015-09-27T08:58:38Z</time>
      </trkpt>
      <trkpt lat="45.34396" lon="4.33783">
        <ele>851.60754</ele>
        <time>2015-09-27T08:58:41Z</time>
      </trkpt>
      <trkpt lat="45.34385" lon="4.33774">
        <ele>850.3181</ele>
        <time>2015-09-27T08:58:43Z</time>
      </trkpt>
      <trkpt lat="45.34376" lon="4.33767">
        <ele>849.2083</ele>
        <time>2015-09-27T08:58:45Z</time>
      </trkpt>
      <trkpt lat="45.34368" lon="4.33761">
        <ele>847.9559</ele>
        <time>2015-09-27T08:58:47Z</time>
      </trkpt>
      <trkpt lat="45.34357" lon="4.33754">
        <ele>846.43134</ele>
        <time>2015-09-27T08:58:50Z</time>
      </trkpt>
      <trkpt lat="45.34346" lon="4.33753">
        <ele>844.3915</ele>
        <time>2015-09-27T08:58:54Z</time>
      </trkpt>
      <trkpt lat="45.34338" lon="4.33745">
        <ele>843.6701</ele>
        <time>2015-09-27T08:59:00Z</time>
      </trkpt>
      <trkpt lat="45.34329" lon="4.33739">
        <ele>842.28296</ele>
        <time>2015-09-27T08:59:04Z</time>
      </trkpt>
      <trkpt lat="45.34319" lon="4.3373">
        <ele>840.81384</ele>
        <time>2015-09-27T08:59:08Z</time>
      </trkpt>
      <trkpt lat="45.34308" lon="4.33721">
        <ele>839.33154</ele>
        <time>2015-09-27T08:59:11Z</time>
      </trkpt>
      <trkpt lat="45.34296" lon="4.33713">
        <ele>838.3248</ele>
        <time>2015-09-27T08:59:14Z</time>
      </trkpt>
      <trkpt lat="45.34284" lon="4.33712">
        <ele>837.6616</ele>
        <time>2015-09-27T08:59:16Z</time>
      </trkpt>
      <trkpt lat="45.34274" lon="4.33709">
        <ele>836.66284</ele>
        <time>2015-09-27T08:59:18Z</time>
      </trkpt>
      <trkpt lat="45.34263" lon="4.33705">
        <ele>834.73926</ele>
        <time>2015-09-27T08:59:20Z</time>
      </trkpt>
      <trkpt lat="45.34251" lon="4.337">
        <ele>832.25287</ele>
        <time>2015-09-27T08:59:22Z</time>
      </trkpt>
      <trkpt lat="45.34237" lon="4.33693">
        <ele>831.20917</ele>
        <time>2015-09-27T08:59:24Z</time>
      </trkpt>
      <trkpt lat="45.34223" lon="4.33684">
        <ele>828.76245</ele>
        <time>2015-09-27T08:59:26Z</time>
      </trkpt>
      <trkpt lat="45.34142" lon="4.335">
        <ele>830.509</ele>
        <time>2015-09-27T08:59:42Z</time>
      </trkpt>
      <trkpt lat="45.34139" lon="4.33486">
        <ele>831.6927</ele>
        <time>2015-09-27T08:59:48Z</time>
      </trkpt>
      <trkpt lat="45.34132" lon="4.33476">
        <ele>832.78925</ele>
        <time>2015-09-27T08:59:56Z</time>
      </trkpt>
      <trkpt lat="45.34136" lon="4.33464">
        <ele>834.53314</ele>
        <time>2015-09-27T09:00:02Z</time>
      </trkpt>
      <trkpt lat="45.34139" lon="4.33452">
        <ele>835.9917</ele>
        <time>2015-09-27T09:00:09Z</time>
      </trkpt>
      <trkpt lat="45.34142" lon="4.33439">
        <ele>837.7911</ele>
        <time>2015-09-27T09:00:17Z</time>
      </trkpt>
      <trkpt lat="45.34139" lon="4.33426">
        <ele>838.9299</ele>
        <time>2015-09-27T09:00:23Z</time>
      </trkpt>
      <trkpt lat="45.34139" lon="4.33412">
        <ele>840.3594</ele>
        <time>2015-09-27T09:00:29Z</time>
      </trkpt>
      <trkpt lat="45.34136" lon="4.33399">
        <ele>842.31464</ele>
        <time>2015-09-27T09:00:37Z</time>
      </trkpt>
      <trkpt lat="45.34137" lon="4.33385">
        <ele>844.0876</ele>
        <time>2015-09-27T09:00:44Z</time>
      </trkpt>
      <trkpt lat="45.34137" lon="4.33371">
        <ele>845.8051</ele>
        <time>2015-09-27T09:00:51Z</time>
      </trkpt>
      <trkpt lat="45.34135" lon="4.33358">
        <ele>847.364</ele>
        <time>2015-09-27T09:00:57Z</time>
      </trkpt>
      <trkpt lat="45.34131" lon="4.33347">
        <ele>848.384</ele>
        <time>2015-09-27T09:01:03Z</time>
      </trkpt>
      <trkpt lat="45.34126" lon="4.33336">
        <ele>850.38416</ele>
        <time>2015-09-27T09:01:14Z</time>
      </trkpt>
      <trkpt lat="45.34116" lon="4.33335">
        <ele>851.2138</ele>
        <time>2015-09-27T09:01:20Z</time>
      </trkpt>
      <trkpt lat="45.3411" lon="4.33326">
        <ele>851.07117</ele>
        <time>2015-09-27T09:01:24Z</time>
      </trkpt>
      <trkpt lat="45.34113" lon="4.33312">
        <ele>850.20447</ele>
        <time>2015-09-27T09:01:28Z</time>
      </trkpt>
      <trkpt lat="45.34118" lon="4.33297">
        <ele>848.5451</ele>
        <time>2015-09-27T09:01:31Z</time>
      </trkpt>
      <trkpt lat="45.34122" lon="4.33282">
        <ele>846.71405</ele>
        <time>2015-09-27T09:01:35Z</time>
      </trkpt>
      <trkpt lat="45.34127" lon="4.33267">
        <ele>845.6994</ele>
        <time>2015-09-27T09:01:38Z</time>
      </trkpt>
      <trkpt lat="45.34127" lon="4.3325">
        <ele>844.44696</ele>
        <time>2015-09-27T09:01:41Z</time>
      </trkpt>
      <trkpt lat="45.34125" lon="4.33237">
        <ele>843.98456</ele>
        <time>2015-09-27T09:01:43Z</time>
      </trkpt>
      <trkpt lat="45.34122" lon="4.33219">
        <ele>842.9541</ele>
        <time>2015-09-27T09:01:46Z</time>
      </trkpt>
      <trkpt lat="45.34119" lon="4.33202">
        <ele>842.95935</ele>
        <time>2015-09-27T09:01:49Z</time>
      </trkpt>
      <trkpt lat="45.34118" lon="4.33186">
        <ele>842.0742</ele>
        <time>2015-09-27T09:01:52Z</time>
      </trkpt>
      <trkpt lat="45.34118" lon="4.33167">
        <ele>841.55365</ele>
        <time>2015-09-27T09:01:55Z</time>
      </trkpt>
      <trkpt lat="45.3412" lon="4.33153">
        <ele>841.0622</ele>
        <time>2015-09-27T09:01:57Z</time>
      </trkpt>
      <trkpt lat="45.34123" lon="4.3314">
        <ele>840.97235</ele>
        <time>2015-09-27T09:01:59Z</time>
      </trkpt>
      <trkpt lat="45.34125" lon="4.33128">
        <ele>841.09125</ele>
        <time>2015-09-27T09:02:01Z</time>
      </trkpt>
      <trkpt lat="45.34128" lon="4.33112">
        <ele>840.8984</ele>
        <time>2015-09-27T09:02:04Z</time>
      </trkpt>
      <trkpt lat="45.34131" lon="4.33097">
        <ele>840.8667</ele>
        <time>2015-09-27T09:02:07Z</time>
      </trkpt>
      <trkpt lat="45.34132" lon="4.33079">
        <ele>839.823</ele>
        <time>2015-09-27T09:02:10Z</time>
      </trkpt>
      <trkpt lat="45.34135" lon="4.33063">
        <ele>839.45044</ele>
        <time>2015-09-27T09:02:13Z</time>
      </trkpt>
      <trkpt lat="45.3414" lon="4.33047">
        <ele>838.6313</ele>
        <time>2015-09-27T09:02:16Z</time>
      </trkpt>
      <trkpt lat="45.34145" lon="4.33032">
        <ele>838.4147</ele>
        <time>2015-09-27T09:02:19Z</time>
      </trkpt>
      <trkpt lat="45.34148" lon="4.33017">
        <ele>838.47015</ele>
        <time>2015-09-27T09:02:23Z</time>
      </trkpt>
      <trkpt lat="45.34152" lon="4.33004">
        <ele>838.4147</ele>
        <time>2015-09-27T09:02:27Z</time>
      </trkpt>
      <trkpt lat="45.34155" lon="4.32992">
        <ele>838.4147</ele>
        <time>2015-09-27T09:02:30Z</time>
      </trkpt>
      <trkpt lat="45.34158" lon="4.32977">
        <ele>837.6774</ele>
        <time>2015-09-27T09:02:33Z</time>
      </trkpt>
      <trkpt lat="45.34162" lon="4.32965">
        <ele>836.3801</ele>
        <time>2015-09-27T09:02:35Z</time>
      </trkpt>
      <trkpt lat="45.3417" lon="4.32955">
        <ele>835.561</ele>
        <time>2015-09-27T09:02:37Z</time>
      </trkpt>
      <trkpt lat="45.34177" lon="4.32943">
        <ele>834.5173</ele>
        <time>2015-09-27T09:02:39Z</time>
      </trkpt>
      <trkpt lat="45.34182" lon="4.32932">
        <ele>834.05225</ele>
        <time>2015-09-27T09:02:41Z</time>
      </trkpt>
      <trkpt lat="45.34193" lon="4.32923">
        <ele>833.53436</ele>
        <time>2015-09-27T09:02:43Z</time>
      </trkpt>
      <trkpt lat="45.34203" lon="4.32914">
        <ele>833.02704</ele>
        <time>2015-09-27T09:02:46Z</time>
      </trkpt>
      <trkpt lat="45.34211" lon="4.32904">
        <ele>833.65857</ele>
        <time>2015-09-27T09:02:48Z</time>
      </trkpt>
      <trkpt lat="45.34215" lon="4.32892">
        <ele>833.3415</ele>
        <time>2015-09-27T09:02:51Z</time>
      </trkpt>
      <trkpt lat="45.34221" lon="4.32878">
        <ele>833.2358</ele>
        <time>2015-09-27T09:02:55Z</time>
      </trkpt>
      <trkpt lat="45.34228" lon="4.32869">
        <ele>833.6401</ele>
        <time>2015-09-27T09:02:57Z</time>
      </trkpt>
      <trkpt lat="45.34233" lon="4.32857">
        <ele>834.2636</ele>
        <time>2015-09-27T09:03:00Z</time>
      </trkpt>
      <trkpt lat="45.34239" lon="4.32847">
        <ele>834.66</ele>
        <time>2015-09-27T09:03:12Z</time>
      </trkpt>
      <trkpt lat="45.34247" lon="4.32835">
        <ele>833.72723</ele>
        <time>2015-09-27T09:04:08Z</time>
      </trkpt>
      <trkpt lat="45.34253" lon="4.32823">
        <ele>834.0866</ele>
        <time>2015-09-27T09:04:11Z</time>
      </trkpt>
      <trkpt lat="45.3426" lon="4.32811">
        <ele>833.75635</ele>
        <time>2015-09-27T09:04:14Z</time>
      </trkpt>
      <trkpt lat="45.34267" lon="4.328">
        <ele>834.21344</ele>
        <time>2015-09-27T09:04:17Z</time>
      </trkpt>
      <trkpt lat="45.34272" lon="4.32786">
        <ele>834.19495</ele>
        <time>2015-09-27T09:04:20Z</time>
      </trkpt>
      <trkpt lat="45.34277" lon="4.32773">
        <ele>834.3403</ele>
        <time>2015-09-27T09:04:24Z</time>
      </trkpt>
      <trkpt lat="45.34285" lon="4.32759">
        <ele>834.8</ele>
        <time>2015-09-27T09:04:28Z</time>
      </trkpt>
      <trkpt lat="45.3429" lon="4.32748">
        <ele>835.0087</ele>
        <time>2015-09-27T09:04:30Z</time>
      </trkpt>
      <trkpt lat="45.34293" lon="4.32728">
        <ele>835.23334</ele>
        <time>2015-09-27T09:04:36Z</time>
      </trkpt>
      <trkpt lat="45.34296" lon="4.32716">
        <ele>835.9468</ele>
        <time>2015-09-27T09:04:41Z</time>
      </trkpt>
      <trkpt lat="45.34302" lon="4.32703">
        <ele>835.8728</ele>
        <time>2015-09-27T09:04:45Z</time>
      </trkpt>
      <trkpt lat="45.34306" lon="4.32688">
        <ele>837.3789</ele>
        <time>2015-09-27T09:04:52Z</time>
      </trkpt>
      <trkpt lat="45.34313" lon="4.32675">
        <ele>838.18475</ele>
        <time>2015-09-27T09:04:58Z</time>
      </trkpt>
      <trkpt lat="45.34321" lon="4.32665">
        <ele>838.46747</ele>
        <time>2015-09-27T09:05:04Z</time>
      </trkpt>
      <trkpt lat="45.34323" lon="4.32651">
        <ele>838.774</ele>
        <time>2015-09-27T09:05:12Z</time>
      </trkpt>
      <trkpt lat="45.34324" lon="4.32637">
        <ele>840.4201</ele>
        <time>2015-09-27T09:06:00Z</time>
      </trkpt>
      <trkpt lat="45.34325" lon="4.32623">
        <ele>841.13354</ele>
        <time>2015-09-27T09:06:04Z</time>
      </trkpt>
      <trkpt lat="45.34325" lon="4.32609">
        <ele>841.2789</ele>
        <time>2015-09-27T09:06:08Z</time>
      </trkpt>
      <trkpt lat="45.34327" lon="4.32595">
        <ele>841.7069</ele>
        <time>2015-09-27T09:06:13Z</time>
      </trkpt>
      <trkpt lat="45.3433" lon="4.32582">
        <ele>842.16406</ele>
        <time>2015-09-27T09:06:18Z</time>
      </trkpt>
      <trkpt lat="45.34335" lon="4.32569">
        <ele>841.8047</ele>
        <time>2015-09-27T09:06:23Z</time>
      </trkpt>
      <trkpt lat="45.34343" lon="4.32557">
        <ele>841.67255</ele>
        <time>2015-09-27T09:06:27Z</time>
      </trkpt>
      <trkpt lat="45.34351" lon="4.32546">
        <ele>840.1057</ele>
        <time>2015-09-27T09:06:30Z</time>
      </trkpt>
      <trkpt lat="45.34358" lon="4.32537">
        <ele>839.2998</ele>
        <time>2015-09-27T09:06:32Z</time>
      </trkpt>
      <trkpt lat="45.34367" lon="4.32527">
        <ele>837.54004</ele>
        <time>2015-09-27T09:06:35Z</time>
      </trkpt>
      <trkpt lat="45.34376" lon="4.32517">
        <ele>835.73804</ele>
        <time>2015-09-27T09:06:39Z</time>
      </trkpt>
      <trkpt lat="45.34383" lon="4.32508">
        <ele>834.57544</ele>
        <time>2015-09-27T09:06:43Z</time>
      </trkpt>
      <trkpt lat="45.34391" lon="4.32501">
        <ele>832.2978</ele>
        <time>2015-09-27T09:06:48Z</time>
      </trkpt>
      <trkpt lat="45.34399" lon="4.32496">
        <ele>830.3874</ele>
        <time>2015-09-27T09:06:51Z</time>
      </trkpt>
      <trkpt lat="45.34408" lon="4.32489">
        <ele>828.1864</ele>
        <time>2015-09-27T09:06:54Z</time>
      </trkpt>
      <trkpt lat="45.34419" lon="4.32478">
        <ele>826.564</ele>
        <time>2015-09-27T09:06:57Z</time>
      </trkpt>
      <trkpt lat="45.34426" lon="4.32468">
        <ele>825.3433</ele>
        <time>2015-09-27T09:06:59Z</time>
      </trkpt>
      <trkpt lat="45.34433" lon="4.32458">
        <ele>824.22565</ele>
        <time>2015-09-27T09:07:01Z</time>
      </trkpt>
      <trkpt lat="45.34441" lon="4.32451">
        <ele>822.32056</ele>
        <time>2015-09-27T09:07:03Z</time>
      </trkpt>
      <trkpt lat="45.34449" lon="4.32444">
        <ele>821.0787</ele>
        <time>2015-09-27T09:07:05Z</time>
      </trkpt>
      <trkpt lat="45.34457" lon="4.32433">
        <ele>818.92786</ele>
        <time>2015-09-27T09:07:08Z</time>
      </trkpt>
      <trkpt lat="45.34463" lon="4.32423">
        <ele>816.74005</ele>
        <time>2015-09-27T09:07:10Z</time>
      </trkpt>
      <trkpt lat="45.34472" lon="4.32409">
        <ele>816.40186</ele>
        <time>2015-09-27T09:07:12Z</time>
      </trkpt>
      <trkpt lat="45.34478" lon="4.32398">
        <ele>816.24066</ele>
        <time>2015-09-27T09:07:14Z</time>
      </trkpt>
      <trkpt lat="45.34488" lon="4.32395">
        <ele>815.8047</ele>
        <time>2015-09-27T09:07:17Z</time>
      </trkpt>
      <trkpt lat="45.34498" lon="4.32389">
        <ele>815.884</ele>
        <time>2015-09-27T09:07:21Z</time>
      </trkpt>
      <trkpt lat="45.34507" lon="4.32382">
        <ele>815.75977</ele>
        <time>2015-09-27T09:07:27Z</time>
      </trkpt>
      <trkpt lat="45.34505" lon="4.32366">
        <ele>815.7281</ele>
        <time>2015-09-27T09:07:47Z</time>
      </trkpt>
      <trkpt lat="45.34498" lon="4.32356">
        <ele>815.5061</ele>
        <time>2015-09-27T09:07:50Z</time>
      </trkpt>
      <trkpt lat="45.34491" lon="4.32345">
        <ele>816.349</ele>
        <time>2015-09-27T09:07:53Z</time>
      </trkpt>
      <trkpt lat="45.34484" lon="4.32333">
        <ele>816.04254</ele>
        <time>2015-09-27T09:07:56Z</time>
      </trkpt>
      <trkpt lat="45.34477" lon="4.32319">
        <ele>816.08746</ele>
        <time>2015-09-27T09:07:59Z</time>
      </trkpt>
      <trkpt lat="45.3447" lon="4.3231">
        <ele>816.56305</ele>
        <time>2015-09-27T09:08:02Z</time>
      </trkpt>
      <trkpt lat="45.34463" lon="4.32301">
        <ele>816.91974</ele>
        <time>2015-09-27T09:08:05Z</time>
      </trkpt>
      <trkpt lat="45.34454" lon="4.32292">
        <ele>817.46936</ele>
        <time>2015-09-27T09:08:09Z</time>
      </trkpt>
      <trkpt lat="45.34447" lon="4.32285">
        <ele>818.3624</ele>
        <time>2015-09-27T09:08:14Z</time>
      </trkpt>
      <trkpt lat="45.34437" lon="4.32282">
        <ele>818.63196</ele>
        <time>2015-09-27T09:08:20Z</time>
      </trkpt>
      <trkpt lat="45.34427" lon="4.32278">
        <ele>819.3586</ele>
        <time>2015-09-27T09:08:26Z</time>
      </trkpt>
      <trkpt lat="45.34418" lon="4.32276">
        <ele>819.02563</ele>
        <time>2015-09-27T09:08:31Z</time>
      </trkpt>
      <trkpt lat="45.34408" lon="4.32274">
        <ele>819.3295</ele>
        <time>2015-09-27T09:08:36Z</time>
      </trkpt>
      <trkpt lat="45.34398" lon="4.32272">
        <ele>819.2397</ele>
        <time>2015-09-27T09:08:41Z</time>
      </trkpt>
      <trkpt lat="45.34388" lon="4.32272">
        <ele>819.38763</ele>
        <time>2015-09-27T09:08:46Z</time>
      </trkpt>
      <trkpt lat="45.34378" lon="4.32272">
        <ele>819.00714</ele>
        <time>2015-09-27T09:08:51Z</time>
      </trkpt>
      <trkpt lat="45.34369" lon="4.32266">
        <ele>819.4616</ele>
        <time>2015-09-27T09:08:57Z</time>
      </trkpt>
      <trkpt lat="45.3436" lon="4.32263">
        <ele>818.735</ele>
        <time>2015-09-27T09:09:02Z</time>
      </trkpt>
      <trkpt lat="45.3435" lon="4.32264">
        <ele>818.56323</ele>
        <time>2015-09-27T09:09:07Z</time>
      </trkpt>
      <trkpt lat="45.3434" lon="4.32264">
        <ele>817.4984</ele>
        <time>2015-09-27T09:09:12Z</time>
      </trkpt>
      <trkpt lat="45.34329" lon="4.32258">
        <ele>818.5395</ele>
        <time>2015-09-27T09:09:16Z</time>
      </trkpt>
      <trkpt lat="45.34319" lon="4.32257">
        <ele>819.14984</ele>
        <time>2015-09-27T09:09:21Z</time>
      </trkpt>
      <trkpt lat="45.34309" lon="4.3226">
        <ele>820.1856</ele>
        <time>2015-09-27T09:09:26Z</time>
      </trkpt>
      <trkpt lat="45.34301" lon="4.32267">
        <ele>822.709</ele>
        <time>2015-09-27T09:09:34Z</time>
      </trkpt>
      <trkpt lat="45.34293" lon="4.32276">
        <ele>824.0803</ele>
        <time>2015-09-27T09:09:42Z</time>
      </trkpt>
      <trkpt lat="45.34287" lon="4.32286">
        <ele>825.3116</ele>
        <time>2015-09-27T09:09:49Z</time>
      </trkpt>
      <trkpt lat="45.3428" lon="4.32295">
        <ele>826.1598</ele>
        <time>2015-09-27T09:09:55Z</time>
      </trkpt>
      <trkpt lat="45.34271" lon="4.323">
        <ele>827.3673</ele>
        <time>2015-09-27T09:10:01Z</time>
      </trkpt>
      <trkpt lat="45.34263" lon="4.32305">
        <ele>828.45593</ele>
        <time>2015-09-27T09:10:07Z</time>
      </trkpt>
      <trkpt lat="45.34253" lon="4.32309">
        <ele>829.06366</ele>
        <time>2015-09-27T09:10:14Z</time>
      </trkpt>
      <trkpt lat="45.34243" lon="4.32306">
        <ele>830.07825</ele>
        <time>2015-09-27T09:10:20Z</time>
      </trkpt>
      <trkpt lat="45.34234" lon="4.32306">
        <ele>830.4957</ele>
        <time>2015-09-27T09:10:26Z</time>
      </trkpt>
      <trkpt lat="45.34224" lon="4.32304">
        <ele>830.88947</ele>
        <time>2015-09-27T09:10:32Z</time>
      </trkpt>
      <trkpt lat="45.34214" lon="4.32306">
        <ele>831.2435</ele>
        <time>2015-09-27T09:10:37Z</time>
      </trkpt>
      <trkpt lat="45.34205" lon="4.32308">
        <ele>831.20917</ele>
        <time>2015-09-27T09:10:41Z</time>
      </trkpt>
      <trkpt lat="45.34195" lon="4.32311">
        <ele>832.0151</ele>
        <time>2015-09-27T09:10:45Z</time>
      </trkpt>
      <trkpt lat="45.34185" lon="4.32317">
        <ele>831.9781</ele>
        <time>2015-09-27T09:10:50Z</time>
      </trkpt>
      <trkpt lat="45.34176" lon="4.32324">
        <ele>832.4061</ele>
        <time>2015-09-27T09:10:55Z</time>
      </trkpt>
      <trkpt lat="45.34166" lon="4.32331">
        <ele>832.74695</ele>
        <time>2015-09-27T09:10:59Z</time>
      </trkpt>
      <trkpt lat="45.34159" lon="4.32339">
        <ele>833.30975</ele>
        <time>2015-09-27T09:11:03Z</time>
      </trkpt>
      <trkpt lat="45.3415" lon="4.32346">
        <ele>833.83295</ele>
        <time>2015-09-27T09:11:07Z</time>
      </trkpt>
      <trkpt lat="45.34141" lon="4.32354">
        <ele>833.5687</ele>
        <time>2015-09-27T09:11:11Z</time>
      </trkpt>
      <trkpt lat="45.34132" lon="4.32362">
        <ele>833.6401</ele>
        <time>2015-09-27T09:11:15Z</time>
      </trkpt>
      <trkpt lat="45.34124" lon="4.32373">
        <ele>833.71405</ele>
        <time>2015-09-27T09:11:19Z</time>
      </trkpt>
      <trkpt lat="45.34117" lon="4.32382">
        <ele>833.6823</ele>
        <time>2015-09-27T09:11:23Z</time>
      </trkpt>
      <trkpt lat="45.34108" lon="4.32391">
        <ele>833.90955</ele>
        <time>2015-09-27T09:11:27Z</time>
      </trkpt>
      <trkpt lat="45.34101" lon="4.32401">
        <ele>834.05225</ele>
        <time>2015-09-27T09:11:31Z</time>
      </trkpt>
      <trkpt lat="45.34093" lon="4.32409">
        <ele>834.53314</ele>
        <time>2015-09-27T09:11:34Z</time>
      </trkpt>
      <trkpt lat="45.34086" lon="4.32421">
        <ele>834.7498</ele>
        <time>2015-09-27T09:11:38Z</time>
      </trkpt>
      <trkpt lat="45.34079" lon="4.32434">
        <ele>835.07214</ele>
        <time>2015-09-27T09:11:42Z</time>
      </trkpt>
      <trkpt lat="45.34074" lon="4.32446">
        <ele>835.38135</ele>
        <time>2015-09-27T09:11:46Z</time>
      </trkpt>
      <trkpt lat="45.34064" lon="4.32453">
        <ele>835.6614</ele>
        <time>2015-09-27T09:11:51Z</time>
      </trkpt>
      <trkpt lat="45.34052" lon="4.32455">
        <ele>833.5027</ele>
        <time>2015-09-27T09:11:55Z</time>
      </trkpt>
      <trkpt lat="45.34037" lon="4.32457">
        <ele>832.4246</ele>
        <time>2015-09-27T09:11:58Z</time>
      </trkpt>
      <trkpt lat="45.34028" lon="4.32463">
        <ele>831.90674</ele>
        <time>2015-09-27T09:12:00Z</time>
      </trkpt>
      <trkpt lat="45.34018" lon="4.3247">
        <ele>830.0307</ele>
        <time>2015-09-27T09:12:03Z</time>
      </trkpt>
      <trkpt lat="45.34005" lon="4.32477">
        <ele>827.7689</ele>
        <time>2015-09-27T09:12:06Z</time>
      </trkpt>
      <trkpt lat="45.33996" lon="4.32484">
        <ele>826.062</ele>
        <time>2015-09-27T09:12:09Z</time>
      </trkpt>
      <trkpt lat="45.33986" lon="4.32484">
        <ele>824.3604</ele>
        <time>2015-09-27T09:12:11Z</time>
      </trkpt>
      <trkpt lat="45.33976" lon="4.32485">
        <ele>822.5425</ele>
        <time>2015-09-27T09:12:13Z</time>
      </trkpt>
      <trkpt lat="45.33966" lon="4.32486">
        <ele>821.41956</ele>
        <time>2015-09-27T09:12:14Z</time>
      </trkpt>
      <trkpt lat="45.33953" lon="4.32488">
        <ele>820.9677</ele>
        <time>2015-09-27T09:12:17Z</time>
      </trkpt>
      <trkpt lat="45.33944" lon="4.3249">
        <ele>819.73114</ele>
        <time>2015-09-27T09:12:19Z</time>
      </trkpt>
      <trkpt lat="45.33934" lon="4.32497">
        <ele>817.3663</ele>
        <time>2015-09-27T09:12:22Z</time>
      </trkpt>
      <trkpt lat="45.33923" lon="4.32501">
        <ele>816.5472</ele>
        <time>2015-09-27T09:12:24Z</time>
      </trkpt>
      <trkpt lat="45.33913" lon="4.32503">
        <ele>816.26447</ele>
        <time>2015-09-27T09:12:26Z</time>
      </trkpt>
      <trkpt lat="45.33903" lon="4.32507">
        <ele>815.77826</ele>
        <time>2015-09-27T09:12:28Z</time>
      </trkpt>
      <trkpt lat="45.33893" lon="4.32515">
        <ele>814.59985</ele>
        <time>2015-09-27T09:12:31Z</time>
      </trkpt>
      <trkpt lat="45.33884" lon="4.3252">
        <ele>810.76324</ele>
        <time>2015-09-27T09:12:36Z</time>
      </trkpt>
      <trkpt lat="45.33875" lon="4.32517">
        <ele>811.54803</ele>
        <time>2015-09-27T09:12:41Z</time>
      </trkpt>
      <trkpt lat="45.3387" lon="4.32504">
        <ele>812.9035</ele>
        <time>2015-09-27T09:12:47Z</time>
      </trkpt>
      <trkpt lat="45.33876" lon="4.32495">
        <ele>814.4492</ele>
        <time>2015-09-27T09:12:53Z</time>
      </trkpt>
      <trkpt lat="45.33886" lon="4.32488">
        <ele>814.9909</ele>
        <time>2015-09-27T09:12:59Z</time>
      </trkpt>
      <trkpt lat="45.33891" lon="4.32476">
        <ele>818.79315</ele>
        <time>2015-09-27T09:13:15Z</time>
      </trkpt>
      <trkpt lat="45.33885" lon="4.32464">
        <ele>820.18823</ele>
        <time>2015-09-27T09:13:26Z</time>
      </trkpt>
      <trkpt lat="45.33877" lon="4.32459">
        <ele>820.93604</ele>
        <time>2015-09-27T09:14:48Z</time>
      </trkpt>
      <trkpt lat="45.33866" lon="4.32458">
        <ele>822.08276</ele>
        <time>2015-09-27T09:14:53Z</time>
      </trkpt>
      <trkpt lat="45.33857" lon="4.32457">
        <ele>822.95996</ele>
        <time>2015-09-27T09:14:58Z</time>
      </trkpt>
      <trkpt lat="45.33847" lon="4.32456">
        <ele>823.4356</ele>
        <time>2015-09-27T09:15:03Z</time>
      </trkpt>
      <trkpt lat="45.33837" lon="4.32456">
        <ele>824.223</ele>
        <time>2015-09-27T09:15:08Z</time>
      </trkpt>
      <trkpt lat="45.33827" lon="4.32457">
        <ele>825.14777</ele>
        <time>2015-09-27T09:15:13Z</time>
      </trkpt>
      <trkpt lat="45.33817" lon="4.32458">
        <ele>825.774</ele>
        <time>2015-09-27T09:15:18Z</time>
      </trkpt>
      <trkpt lat="45.33807" lon="4.32461">
        <ele>827.5813</ele>
        <time>2015-09-27T09:15:24Z</time>
      </trkpt>
      <trkpt lat="45.33798" lon="4.32462">
        <ele>827.2484</ele>
        <time>2015-09-27T09:15:29Z</time>
      </trkpt>
      <trkpt lat="45.33788" lon="4.32464">
        <ele>828.2313</ele>
        <time>2015-09-27T09:15:34Z</time>
      </trkpt>
      <trkpt lat="45.33778" lon="4.32463">
        <ele>828.0067</ele>
        <time>2015-09-27T09:15:40Z</time>
      </trkpt>
      <trkpt lat="45.33769" lon="4.32462">
        <ele>827.85876</ele>
        <time>2015-09-27T09:15:45Z</time>
      </trkpt>
      <trkpt lat="45.3376" lon="4.32461">
        <ele>827.31445</ele>
        <time>2015-09-27T09:15:50Z</time>
      </trkpt>
      <trkpt lat="45.33755" lon="4.32449">
        <ele>829.0108</ele>
        <time>2015-09-27T09:15:55Z</time>
      </trkpt>
      <trkpt lat="45.33756" lon="4.32431">
        <ele>830.0333</ele>
        <time>2015-09-27T09:16:00Z</time>
      </trkpt>
      <trkpt lat="45.33756" lon="4.32418">
        <ele>830.10205</ele>
        <time>2015-09-27T09:16:06Z</time>
      </trkpt>
      <trkpt lat="45.33755" lon="4.32402">
        <ele>830.871</ele>
        <time>2015-09-27T09:16:11Z</time>
      </trkpt>
      <trkpt lat="45.33754" lon="4.32387">
        <ele>832.3401</ele>
        <time>2015-09-27T09:16:19Z</time>
      </trkpt>
      <trkpt lat="45.33751" lon="4.32372">
        <ele>833.69556</ele>
        <time>2015-09-27T09:16:26Z</time>
      </trkpt>
      <trkpt lat="45.33749" lon="4.32359">
        <ele>833.7114</ele>
        <time>2015-09-27T09:16:32Z</time>
      </trkpt>
      <trkpt lat="45.33746" lon="4.32345">
        <ele>834.2795</ele>
        <time>2015-09-27T09:16:36Z</time>
      </trkpt>
      <trkpt lat="45.33742" lon="4.32332">
        <ele>834.0998</ele>
        <time>2015-09-27T09:16:41Z</time>
      </trkpt>
      <trkpt lat="45.33738" lon="4.32318">
        <ele>834.01526</ele>
        <time>2015-09-27T09:16:46Z</time>
      </trkpt>
      <trkpt lat="45.3373" lon="4.32304">
        <ele>835.2703</ele>
        <time>2015-09-27T09:16:51Z</time>
      </trkpt>
      <trkpt lat="45.33727" lon="4.3229">
        <ele>834.96387</ele>
        <time>2015-09-27T09:16:55Z</time>
      </trkpt>
      <trkpt lat="45.33721" lon="4.32278">
        <ele>834.7868</ele>
        <time>2015-09-27T09:16:59Z</time>
      </trkpt>
      <trkpt lat="45.33715" lon="4.32261">
        <ele>834.96387</ele>
        <time>2015-09-27T09:17:05Z</time>
      </trkpt>
      <trkpt lat="45.33708" lon="4.32248">
        <ele>835.19635</ele>
        <time>2015-09-27T09:17:09Z</time>
      </trkpt>
      <trkpt lat="45.33701" lon="4.32235">
        <ele>834.9295</ele>
        <time>2015-09-27T09:17:13Z</time>
      </trkpt>
      <trkpt lat="45.33695" lon="4.32221">
        <ele>835.15674</ele>
        <time>2015-09-27T09:17:17Z</time>
      </trkpt>
      <trkpt lat="45.3369" lon="4.32205">
        <ele>835.21747</ele>
        <time>2015-09-27T09:17:22Z</time>
      </trkpt>
      <trkpt lat="45.33685" lon="4.32193">
        <ele>835.78296</ele>
        <time>2015-09-27T09:17:26Z</time>
      </trkpt>
      <trkpt lat="45.33683" lon="4.32179">
        <ele>836.21625</ele>
        <time>2015-09-27T09:17:30Z</time>
      </trkpt>
      <trkpt lat="45.33681" lon="4.32166">
        <ele>836.35895</ele>
        <time>2015-09-27T09:17:34Z</time>
      </trkpt>
      <trkpt lat="45.33677" lon="4.32151">
        <ele>836.98517</ele>
        <time>2015-09-27T09:17:39Z</time>
      </trkpt>
      <trkpt lat="45.33676" lon="4.32136">
        <ele>837.6167</ele>
        <time>2015-09-27T09:17:44Z</time>
      </trkpt>
      <trkpt lat="45.33672" lon="4.32123">
        <ele>839.04877</ele>
        <time>2015-09-27T09:17:48Z</time>
      </trkpt>
      <trkpt lat="45.3367" lon="4.3211">
        <ele>839.00653</ele>
        <time>2015-09-27T09:17:52Z</time>
      </trkpt>
      <trkpt lat="45.33673" lon="4.32097">
        <ele>838.52563</ele>
        <time>2015-09-27T09:17:56Z</time>
      </trkpt>
      <trkpt lat="45.33678" lon="4.32082">
        <ele>837.30756</ele>
        <time>2015-09-27T09:17:59Z</time>
      </trkpt>
      <trkpt lat="45.33683" lon="4.32063">
        <ele>835.61914</ele>
        <time>2015-09-27T09:18:02Z</time>
      </trkpt>
      <trkpt lat="45.33681" lon="4.32049">
        <ele>835.6429</ele>
        <time>2015-09-27T09:18:03Z</time>
      </trkpt>
      <trkpt lat="45.33681" lon="4.32031">
        <ele>835.3364</ele>
        <time>2015-09-27T09:18:05Z</time>
      </trkpt>
      <trkpt lat="45.3368" lon="4.32015">
        <ele>835.4104</ele>
        <time>2015-09-27T09:18:07Z</time>
      </trkpt>
      <trkpt lat="45.33685" lon="4.32001">
        <ele>835.6059</ele>
        <time>2015-09-27T09:18:10Z</time>
      </trkpt>
      <trkpt lat="45.33684" lon="4.31983">
        <ele>836.82666</ele>
        <time>2015-09-27T09:18:13Z</time>
      </trkpt>
      <trkpt lat="45.33684" lon="4.31966">
        <ele>837.6167</ele>
        <time>2015-09-27T09:18:16Z</time>
      </trkpt>
      <trkpt lat="45.33687" lon="4.31953">
        <ele>838.42255</ele>
        <time>2015-09-27T09:18:20Z</time>
      </trkpt>
      <trkpt lat="45.33687" lon="4.31939">
        <ele>839.32886</ele>
        <time>2015-09-27T09:18:24Z</time>
      </trkpt>
      <trkpt lat="45.33687" lon="4.31926">
        <ele>840.1876</ele>
        <time>2015-09-27T09:18:28Z</time>
      </trkpt>
      <trkpt lat="45.33689" lon="4.31912">
        <ele>841.2789</ele>
        <time>2015-09-27T09:18:33Z</time>
      </trkpt>
      <trkpt lat="45.3369" lon="4.31898">
        <ele>841.27094</ele>
        <time>2015-09-27T09:18:38Z</time>
      </trkpt>
      <trkpt lat="45.3369" lon="4.31885">
        <ele>841.81525</ele>
        <time>2015-09-27T09:18:42Z</time>
      </trkpt>
      <trkpt lat="45.33688" lon="4.31869">
        <ele>840.95654</ele>
        <time>2015-09-27T09:18:46Z</time>
      </trkpt>
      <trkpt lat="45.33691" lon="4.31858">
        <ele>841.4189</ele>
        <time>2015-09-27T09:18:50Z</time>
      </trkpt>
      <trkpt lat="45.33698" lon="4.31842">
        <ele>841.1494</ele>
        <time>2015-09-27T09:18:54Z</time>
      </trkpt>
      <trkpt lat="45.33704" lon="4.31831">
        <ele>840.31445</ele>
        <time>2015-09-27T09:18:57Z</time>
      </trkpt>
      <trkpt lat="45.33711" lon="4.3182">
        <ele>840.0264</ele>
        <time>2015-09-27T09:19:00Z</time>
      </trkpt>
      <trkpt lat="45.3372" lon="4.31813">
        <ele>839.47156</ele>
        <time>2015-09-27T09:19:03Z</time>
      </trkpt>
      <trkpt lat="45.33731" lon="4.31802">
        <ele>839.1228</ele>
        <time>2015-09-27T09:19:06Z</time>
      </trkpt>
      <trkpt lat="45.33738" lon="4.31795">
        <ele>838.8982</ele>
        <time>2015-09-27T09:19:08Z</time>
      </trkpt>
      <trkpt lat="45.33749" lon="4.31783">
        <ele>838.13983</ele>
        <time>2015-09-27T09:19:10Z</time>
      </trkpt>
      <trkpt lat="45.3376" lon="4.31773">
        <ele>837.9523</ele>
        <time>2015-09-27T09:19:12Z</time>
      </trkpt>
      <trkpt lat="45.3377" lon="4.31767">
        <ele>838.02094</ele>
        <time>2015-09-27T09:19:14Z</time>
      </trkpt>
      <trkpt lat="45.33778" lon="4.3176">
        <ele>837.511</ele>
        <time>2015-09-27T09:19:17Z</time>
      </trkpt>
      <trkpt lat="45.33786" lon="4.31754">
        <ele>837.3789</ele>
        <time>2015-09-27T09:20:07Z</time>
      </trkpt>
      <trkpt lat="45.33795" lon="4.31743">
        <ele>837.5876</ele>
        <time>2015-09-27T09:20:13Z</time>
      </trkpt>
      <trkpt lat="45.33801" lon="4.3173">
        <ele>836.79755</ele>
        <time>2015-09-27T09:20:16Z</time>
      </trkpt>
      <trkpt lat="45.33807" lon="4.31717">
        <ele>836.0894</ele>
        <time>2015-09-27T09:20:19Z</time>
      </trkpt>
      <trkpt lat="45.33814" lon="4.31703">
        <ele>836.20044</ele>
        <time>2015-09-27T09:20:22Z</time>
      </trkpt>
      <trkpt lat="45.33821" lon="4.31687">
        <ele>835.3364</ele>
        <time>2015-09-27T09:20:24Z</time>
      </trkpt>
      <trkpt lat="45.33828" lon="4.31677">
        <ele>835.8754</ele>
        <time>2015-09-27T09:20:26Z</time>
      </trkpt>
      <trkpt lat="45.33832" lon="4.31662">
        <ele>835.39453</ele>
        <time>2015-09-27T09:20:28Z</time>
      </trkpt>
      <trkpt lat="45.3384" lon="4.31649">
        <ele>835.4104</ele>
        <time>2015-09-27T09:20:30Z</time>
      </trkpt>
      <trkpt lat="45.33846" lon="4.31633">
        <ele>835.6059</ele>
        <time>2015-09-27T09:20:32Z</time>
      </trkpt>
      <trkpt lat="45.33852" lon="4.31613">
        <ele>834.96387</ele>
        <time>2015-09-27T09:20:35Z</time>
      </trkpt>
      <trkpt lat="45.3386" lon="4.31599">
        <ele>835.2703</ele>
        <time>2015-09-27T09:20:37Z</time>
      </trkpt>
      <trkpt lat="45.33864" lon="4.31581">
        <ele>834.4988</ele>
        <time>2015-09-27T09:20:39Z</time>
      </trkpt>
      <trkpt lat="45.33871" lon="4.31571">
        <ele>835.4104</ele>
        <time>2015-09-27T09:20:41Z</time>
      </trkpt>
      <trkpt lat="45.33878" lon="4.3156">
        <ele>835.7539</ele>
        <time>2015-09-27T09:20:43Z</time>
      </trkpt>
      <trkpt lat="45.33885" lon="4.31546">
        <ele>835.4711</ele>
        <time>2015-09-27T09:20:45Z</time>
      </trkpt>
      <trkpt lat="45.33894" lon="4.31533">
        <ele>836.98517</ele>
        <time>2015-09-27T09:20:48Z</time>
      </trkpt>
      <trkpt lat="45.33901" lon="4.31522">
        <ele>837.1807</ele>
        <time>2015-09-27T09:20:50Z</time>
      </trkpt>
      <trkpt lat="45.33906" lon="4.31506">
        <ele>837.48456</ele>
        <time>2015-09-27T09:20:52Z</time>
      </trkpt>
      <trkpt lat="45.33914" lon="4.31493">
        <ele>838.737</ele>
        <time>2015-09-27T09:20:55Z</time>
      </trkpt>
      <trkpt lat="45.3392" lon="4.31484">
        <ele>839.31036</ele>
        <time>2015-09-27T09:20:57Z</time>
      </trkpt>
      <trkpt lat="45.33929" lon="4.31471">
        <ele>839.68823</ele>
        <time>2015-09-27T09:21:00Z</time>
      </trkpt>
      <trkpt lat="45.33937" lon="4.31457">
        <ele>840.8508</ele>
        <time>2015-09-27T09:21:03Z</time>
      </trkpt>
      <trkpt lat="45.33946" lon="4.31455">
        <ele>840.7029</ele>
        <time>2015-09-27T09:21:07Z</time>
      </trkpt>
      <trkpt lat="45.33956" lon="4.31465">
        <ele>839.31036</ele>
        <time>2015-09-27T09:21:11Z</time>
      </trkpt>
      <trkpt lat="45.33968" lon="4.31475">
        <ele>838.3433</ele>
        <time>2015-09-27T09:21:13Z</time>
      </trkpt>
      <trkpt lat="45.33979" lon="4.31487">
        <ele>836.0524</ele>
        <time>2015-09-27T09:21:15Z</time>
      </trkpt>
      <trkpt lat="45.33994" lon="4.31499">
        <ele>833.42865</ele>
        <time>2015-09-27T09:21:17Z</time>
      </trkpt>
      <trkpt lat="45.34002" lon="4.31505">
        <ele>832.5488</ele>
        <time>2015-09-27T09:21:18Z</time>
      </trkpt>
      <trkpt lat="45.34011" lon="4.31511">
        <ele>831.1193</ele>
        <time>2015-09-27T09:21:19Z</time>
      </trkpt>
      <trkpt lat="45.34023" lon="4.31522">
        <ele>828.6488</ele>
        <time>2015-09-27T09:21:21Z</time>
      </trkpt>
      <trkpt lat="45.34027" lon="4.31539">
        <ele>827.9037</ele>
        <time>2015-09-27T09:21:23Z</time>
      </trkpt>
      <trkpt lat="45.34025" lon="4.31552">
        <ele>826.2047</ele>
        <time>2015-09-27T09:21:24Z</time>
      </trkpt>
      <trkpt lat="45.34012" lon="4.31568">
        <ele>823.36163</ele>
        <time>2015-09-27T09:21:26Z</time>
      </trkpt>
      <trkpt lat="45.34002" lon="4.31576">
        <ele>822.6165</ele>
        <time>2015-09-27T09:21:27Z</time>
      </trkpt>
      <trkpt lat="45.33993" lon="4.31588">
        <ele>822.0537</ele>
        <time>2015-09-27T09:21:28Z</time>
      </trkpt>
      <trkpt lat="45.33986" lon="4.31598">
        <ele>822.347</ele>
        <time>2015-09-27T09:21:29Z</time>
      </trkpt>
      <trkpt lat="45.33972" lon="4.31616">
        <ele>823.0419</ele>
        <time>2015-09-27T09:21:31Z</time>
      </trkpt>
      <trkpt lat="45.33966" lon="4.31626">
        <ele>823.6311</ele>
        <time>2015-09-27T09:21:32Z</time>
      </trkpt>
      <trkpt lat="45.33957" lon="4.31633">
        <ele>824.0618</ele>
        <time>2015-09-27T09:21:34Z</time>
      </trkpt>
      <trkpt lat="45.33945" lon="4.31646">
        <ele>824.1966</ele>
        <time>2015-09-27T09:21:37Z</time>
      </trkpt>
      <trkpt lat="45.33936" lon="4.31656">
        <ele>825.0157</ele>
        <time>2015-09-27T09:21:39Z</time>
      </trkpt>
      <trkpt lat="45.33928" lon="4.31662">
        <ele>825.4173</ele>
        <time>2015-09-27T09:21:41Z</time>
      </trkpt>
      <trkpt lat="45.33918" lon="4.31665">
        <ele>825.9378</ele>
        <time>2015-09-27T09:21:44Z</time>
      </trkpt>
      <trkpt lat="45.33909" lon="4.31668">
        <ele>826.2417</ele>
        <time>2015-09-27T09:21:47Z</time>
      </trkpt>
      <trkpt lat="45.33899" lon="4.31678">
        <ele>827.2167</ele>
        <time>2015-09-27T09:21:50Z</time>
      </trkpt>
      <trkpt lat="45.33891" lon="4.31687">
        <ele>827.8852</ele>
        <time>2015-09-27T09:21:54Z</time>
      </trkpt>
      <trkpt lat="45.33883" lon="4.317">
        <ele>828.8707</ele>
        <time>2015-09-27T09:21:58Z</time>
      </trkpt>
      <trkpt lat="45.33876" lon="4.31709">
        <ele>829.9144</ele>
        <time>2015-09-27T09:22:03Z</time>
      </trkpt>
      <trkpt lat="45.33867" lon="4.31709">
        <ele>831.0744</ele>
        <time>2015-09-27T09:22:08Z</time>
      </trkpt>
      <trkpt lat="45.33858" lon="4.31702">
        <ele>832.1207</ele>
        <time>2015-09-27T09:22:13Z</time>
      </trkpt>
      <trkpt lat="45.33849" lon="4.31693">
        <ele>832.4616</ele>
        <time>2015-09-27T09:22:18Z</time>
      </trkpt>
      <trkpt lat="45.33842" lon="4.31683">
        <ele>833.65857</ele>
        <time>2015-09-27T09:22:24Z</time>
      </trkpt>
      <trkpt lat="45.33834" lon="4.31676">
        <ele>835.0246</ele>
        <time>2015-09-27T09:22:30Z</time>
      </trkpt>
      <trkpt lat="45.33825" lon="4.31673">
        <ele>835.46326</ele>
        <time>2015-09-27T09:22:36Z</time>
      </trkpt>
      <trkpt lat="45.33818" lon="4.31683">
        <ele>835.9468</ele>
        <time>2015-09-27T09:22:42Z</time>
      </trkpt>
      <trkpt lat="45.33817" lon="4.31699">
        <ele>836.108</ele>
        <time>2015-09-27T09:22:45Z</time>
      </trkpt>
      <trkpt lat="45.33813" lon="4.31713">
        <ele>835.71686</ele>
        <time>2015-09-27T09:22:49Z</time>
      </trkpt>
      <trkpt lat="45.33804" lon="4.31712">
        <ele>836.52014</ele>
        <time>2015-09-27T09:22:54Z</time>
      </trkpt>
      <trkpt lat="45.33804" lon="4.31699">
        <ele>837.0909</ele>
        <time>2015-09-27T09:23:14Z</time>
      </trkpt>
      <trkpt lat="45.338" lon="4.3169">
        <ele>837.46606</ele>
        <time>2015-09-27T09:23:35Z</time>
      </trkpt>
      <trkpt lat="45.338" lon="4.3169">
        <ele>837.46606</ele>
        <time>2015-09-27T09:23:35Z</time>
      </trkpt>
    </trkseg>
  </trk>
</gpx>